<?xml version="1.0" encoding="UTF-8" standalone="no" ?>
<gpx xmlns="http://www.topografix.com/GPX/1/1" xmlns:xsi="http://www.w3.org/2001/XMLSchema-instance" xsi:schemaLocation="http://www.topografix.com/GPX/1/1 http://www.topografix.com/GPX/1/1/gpx.xsd" version="1.1" creator="VisuGPX - https://www.visugpx.com">
  <metadata>
    <name>Candas: 01 JUIN 2022 13:57</name>
  </metadata>
  <trk>
    <name><![CDATA[Candas: 01 JUIN 2022 13:57]]></name>
    <trkseg>
      <trkpt lat="50.10751" lon="2.25821">
        <ele>137.61</ele>
        <time>2022-06-01T11:57:11Z</time>
      </trkpt>
      <trkpt lat="50.1075" lon="2.25819">
        <ele>143.85</ele>
        <time>2022-06-01T11:57:25Z</time>
      </trkpt>
      <trkpt lat="50.10749" lon="2.2582">
        <ele>144.82</ele>
        <time>2022-06-01T11:57:40Z</time>
      </trkpt>
      <trkpt lat="50.10749" lon="2.25818">
        <ele>144.82</ele>
        <time>2022-06-01T11:57:57Z</time>
      </trkpt>
      <trkpt lat="50.10746" lon="2.25809">
        <ele>150.58</ele>
        <time>2022-06-01T11:58:13Z</time>
      </trkpt>
      <trkpt lat="50.10744" lon="2.25806">
        <ele>153.47</ele>
        <time>2022-06-01T11:58:27Z</time>
      </trkpt>
      <trkpt lat="50.10743" lon="2.25807">
        <ele>153.47</ele>
        <time>2022-06-01T11:58:49Z</time>
      </trkpt>
      <trkpt lat="50.10744" lon="2.25807">
        <ele>153.95</ele>
        <time>2022-06-01T11:59:06Z</time>
      </trkpt>
      <trkpt lat="50.10744" lon="2.25807">
        <ele>153.95</ele>
        <time>2022-06-01T11:59:26Z</time>
      </trkpt>
      <trkpt lat="50.10744" lon="2.25807">
        <ele>154.43</ele>
        <time>2022-06-01T11:59:44Z</time>
      </trkpt>
      <trkpt lat="50.10744" lon="2.25808">
        <ele>153.95</ele>
        <time>2022-06-01T12:00:03Z</time>
      </trkpt>
      <trkpt lat="50.10746" lon="2.25808">
        <ele>153.95</ele>
        <time>2022-06-01T12:00:23Z</time>
      </trkpt>
      <trkpt lat="50.10746" lon="2.25808">
        <ele>154.43</ele>
        <time>2022-06-01T12:00:47Z</time>
      </trkpt>
      <trkpt lat="50.10746" lon="2.25808">
        <ele>154.43</ele>
        <time>2022-06-01T12:01:08Z</time>
      </trkpt>
      <trkpt lat="50.10745" lon="2.25807">
        <ele>153.95</ele>
        <time>2022-06-01T12:01:28Z</time>
      </trkpt>
      <trkpt lat="50.10745" lon="2.25808">
        <ele>153.95</ele>
        <time>2022-06-01T12:01:42Z</time>
      </trkpt>
      <trkpt lat="50.10738" lon="2.25818">
        <ele>155.39</ele>
        <time>2022-06-01T12:01:54Z</time>
      </trkpt>
      <trkpt lat="50.10738" lon="2.25819">
        <ele>155.39</ele>
        <time>2022-06-01T12:01:55Z</time>
      </trkpt>
      <trkpt lat="50.10734" lon="2.25836">
        <ele>154.43</ele>
        <time>2022-06-01T12:02:08Z</time>
      </trkpt>
      <trkpt lat="50.10737" lon="2.25852">
        <ele>153.47</ele>
        <time>2022-06-01T12:02:20Z</time>
      </trkpt>
      <trkpt lat="50.10728" lon="2.25867">
        <ele>152.99</ele>
        <time>2022-06-01T12:02:32Z</time>
      </trkpt>
      <trkpt lat="50.10718" lon="2.25881">
        <ele>152.03</ele>
        <time>2022-06-01T12:02:44Z</time>
      </trkpt>
      <trkpt lat="50.10705" lon="2.25897">
        <ele>151.06</ele>
        <time>2022-06-01T12:02:59Z</time>
      </trkpt>
      <trkpt lat="50.1069" lon="2.2591">
        <ele>150.1</ele>
        <time>2022-06-01T12:03:14Z</time>
      </trkpt>
      <trkpt lat="50.10675" lon="2.25917">
        <ele>150.58</ele>
        <time>2022-06-01T12:03:28Z</time>
      </trkpt>
      <trkpt lat="50.10676" lon="2.25927">
        <ele>149.62</ele>
        <time>2022-06-01T12:03:35Z</time>
      </trkpt>
      <trkpt lat="50.10684" lon="2.25948">
        <ele>151.54</ele>
        <time>2022-06-01T12:03:50Z</time>
      </trkpt>
      <trkpt lat="50.10697" lon="2.25969">
        <ele>151.06</ele>
        <time>2022-06-01T12:04:05Z</time>
      </trkpt>
      <trkpt lat="50.10711" lon="2.25991">
        <ele>152.03</ele>
        <time>2022-06-01T12:04:20Z</time>
      </trkpt>
      <trkpt lat="50.10722" lon="2.26009">
        <ele>152.03</ele>
        <time>2022-06-01T12:04:34Z</time>
      </trkpt>
      <trkpt lat="50.10731" lon="2.26025">
        <ele>152.03</ele>
        <time>2022-06-01T12:04:46Z</time>
      </trkpt>
      <trkpt lat="50.10731" lon="2.26033">
        <ele>152.51</ele>
        <time>2022-06-01T12:04:50Z</time>
      </trkpt>
      <trkpt lat="50.10737" lon="2.26052">
        <ele>153.95</ele>
        <time>2022-06-01T12:05:00Z</time>
      </trkpt>
      <trkpt lat="50.10739" lon="2.26057">
        <ele>153.95</ele>
        <time>2022-06-01T12:05:03Z</time>
      </trkpt>
      <trkpt lat="50.1075" lon="2.26075">
        <ele>153.95</ele>
        <time>2022-06-01T12:05:17Z</time>
      </trkpt>
      <trkpt lat="50.10762" lon="2.26101">
        <ele>152.99</ele>
        <time>2022-06-01T12:05:33Z</time>
      </trkpt>
      <trkpt lat="50.10774" lon="2.26118">
        <ele>153.47</ele>
        <time>2022-06-01T12:05:47Z</time>
      </trkpt>
      <trkpt lat="50.10775" lon="2.26118">
        <ele>153.47</ele>
        <time>2022-06-01T12:05:48Z</time>
      </trkpt>
      <trkpt lat="50.10789" lon="2.26104">
        <ele>151.06</ele>
        <time>2022-06-01T12:06:03Z</time>
      </trkpt>
      <trkpt lat="50.10802" lon="2.26089">
        <ele>151.54</ele>
        <time>2022-06-01T12:06:16Z</time>
      </trkpt>
      <trkpt lat="50.10819" lon="2.26074">
        <ele>152.99</ele>
        <time>2022-06-01T12:06:30Z</time>
      </trkpt>
      <trkpt lat="50.10838" lon="2.26055">
        <ele>150.58</ele>
        <time>2022-06-01T12:06:48Z</time>
      </trkpt>
      <trkpt lat="50.10851" lon="2.26044">
        <ele>150.58</ele>
        <time>2022-06-01T12:07:01Z</time>
      </trkpt>
      <trkpt lat="50.10866" lon="2.26028">
        <ele>151.06</ele>
        <time>2022-06-01T12:07:15Z</time>
      </trkpt>
      <trkpt lat="50.10875" lon="2.26019">
        <ele>149.62</ele>
        <time>2022-06-01T12:07:24Z</time>
      </trkpt>
      <trkpt lat="50.1089" lon="2.26004">
        <ele>149.62</ele>
        <time>2022-06-01T12:07:37Z</time>
      </trkpt>
      <trkpt lat="50.10903" lon="2.25989">
        <ele>149.14</ele>
        <time>2022-06-01T12:07:50Z</time>
      </trkpt>
      <trkpt lat="50.10924" lon="2.25972">
        <ele>148.66</ele>
        <time>2022-06-01T12:08:07Z</time>
      </trkpt>
      <trkpt lat="50.10941" lon="2.25961">
        <ele>150.1</ele>
        <time>2022-06-01T12:08:21Z</time>
      </trkpt>
      <trkpt lat="50.10958" lon="2.25946">
        <ele>147.7</ele>
        <time>2022-06-01T12:08:36Z</time>
      </trkpt>
      <trkpt lat="50.10977" lon="2.25943">
        <ele>148.66</ele>
        <time>2022-06-01T12:08:50Z</time>
      </trkpt>
      <trkpt lat="50.10994" lon="2.25962">
        <ele>150.1</ele>
        <time>2022-06-01T12:09:04Z</time>
      </trkpt>
      <trkpt lat="50.11011" lon="2.25989">
        <ele>151.06</ele>
        <time>2022-06-01T12:09:21Z</time>
      </trkpt>
      <trkpt lat="50.11026" lon="2.26012">
        <ele>151.06</ele>
        <time>2022-06-01T12:09:36Z</time>
      </trkpt>
      <trkpt lat="50.11041" lon="2.26035">
        <ele>152.51</ele>
        <time>2022-06-01T12:09:51Z</time>
      </trkpt>
      <trkpt lat="50.11058" lon="2.2606">
        <ele>153.47</ele>
        <time>2022-06-01T12:10:08Z</time>
      </trkpt>
      <trkpt lat="50.1107" lon="2.26074">
        <ele>153.47</ele>
        <time>2022-06-01T12:10:22Z</time>
      </trkpt>
      <trkpt lat="50.11083" lon="2.26094">
        <ele>153.95</ele>
        <time>2022-06-01T12:10:34Z</time>
      </trkpt>
      <trkpt lat="50.11095" lon="2.26108">
        <ele>155.39</ele>
        <time>2022-06-01T12:10:46Z</time>
      </trkpt>
      <trkpt lat="50.11109" lon="2.26123">
        <ele>156.83</ele>
        <time>2022-06-01T12:11:00Z</time>
      </trkpt>
      <trkpt lat="50.11126" lon="2.26139">
        <ele>155.87</ele>
        <time>2022-06-01T12:11:16Z</time>
      </trkpt>
      <trkpt lat="50.11145" lon="2.26153">
        <ele>155.39</ele>
        <time>2022-06-01T12:11:31Z</time>
      </trkpt>
      <trkpt lat="50.11164" lon="2.26166">
        <ele>155.39</ele>
        <time>2022-06-01T12:11:47Z</time>
      </trkpt>
      <trkpt lat="50.11177" lon="2.26175">
        <ele>155.39</ele>
        <time>2022-06-01T12:11:58Z</time>
      </trkpt>
      <trkpt lat="50.11195" lon="2.26188">
        <ele>154.91</ele>
        <time>2022-06-01T12:12:13Z</time>
      </trkpt>
      <trkpt lat="50.11213" lon="2.26204">
        <ele>153.47</ele>
        <time>2022-06-01T12:12:28Z</time>
      </trkpt>
      <trkpt lat="50.11237" lon="2.26221">
        <ele>153.95</ele>
        <time>2022-06-01T12:12:47Z</time>
      </trkpt>
      <trkpt lat="50.11259" lon="2.26236">
        <ele>152.99</ele>
        <time>2022-06-01T12:13:05Z</time>
      </trkpt>
      <trkpt lat="50.1128" lon="2.26251">
        <ele>152.03</ele>
        <time>2022-06-01T12:13:21Z</time>
      </trkpt>
      <trkpt lat="50.11297" lon="2.26262">
        <ele>152.03</ele>
        <time>2022-06-01T12:13:35Z</time>
      </trkpt>
      <trkpt lat="50.11318" lon="2.26274">
        <ele>152.03</ele>
        <time>2022-06-01T12:13:51Z</time>
      </trkpt>
      <trkpt lat="50.11338" lon="2.2629">
        <ele>152.51</ele>
        <time>2022-06-01T12:14:06Z</time>
      </trkpt>
      <trkpt lat="50.11363" lon="2.26307">
        <ele>152.51</ele>
        <time>2022-06-01T12:14:26Z</time>
      </trkpt>
      <trkpt lat="50.11387" lon="2.26322">
        <ele>151.54</ele>
        <time>2022-06-01T12:14:44Z</time>
      </trkpt>
      <trkpt lat="50.11409" lon="2.26337">
        <ele>152.03</ele>
        <time>2022-06-01T12:15:01Z</time>
      </trkpt>
      <trkpt lat="50.11431" lon="2.2635">
        <ele>151.54</ele>
        <time>2022-06-01T12:15:18Z</time>
      </trkpt>
      <trkpt lat="50.11443" lon="2.26361">
        <ele>151.06</ele>
        <time>2022-06-01T12:15:29Z</time>
      </trkpt>
      <trkpt lat="50.11454" lon="2.26387">
        <ele>151.06</ele>
        <time>2022-06-01T12:15:43Z</time>
      </trkpt>
      <trkpt lat="50.11467" lon="2.26419">
        <ele>151.54</ele>
        <time>2022-06-01T12:16:00Z</time>
      </trkpt>
      <trkpt lat="50.11479" lon="2.2645">
        <ele>151.54</ele>
        <time>2022-06-01T12:16:17Z</time>
      </trkpt>
      <trkpt lat="50.11493" lon="2.26484">
        <ele>152.03</ele>
        <time>2022-06-01T12:16:36Z</time>
      </trkpt>
      <trkpt lat="50.11504" lon="2.26514">
        <ele>152.03</ele>
        <time>2022-06-01T12:16:53Z</time>
      </trkpt>
      <trkpt lat="50.11516" lon="2.26545">
        <ele>151.54</ele>
        <time>2022-06-01T12:17:10Z</time>
      </trkpt>
      <trkpt lat="50.11527" lon="2.26572">
        <ele>150.58</ele>
        <time>2022-06-01T12:17:26Z</time>
      </trkpt>
      <trkpt lat="50.11538" lon="2.26603">
        <ele>150.1</ele>
        <time>2022-06-01T12:17:43Z</time>
      </trkpt>
      <trkpt lat="50.11549" lon="2.26631">
        <ele>149.62</ele>
        <time>2022-06-01T12:17:59Z</time>
      </trkpt>
      <trkpt lat="50.11562" lon="2.26661">
        <ele>148.66</ele>
        <time>2022-06-01T12:18:16Z</time>
      </trkpt>
      <trkpt lat="50.11577" lon="2.26694">
        <ele>148.66</ele>
        <time>2022-06-01T12:18:34Z</time>
      </trkpt>
      <trkpt lat="50.11591" lon="2.26724">
        <ele>147.22</ele>
        <time>2022-06-01T12:18:52Z</time>
      </trkpt>
      <trkpt lat="50.11602" lon="2.26757">
        <ele>147.22</ele>
        <time>2022-06-01T12:19:09Z</time>
      </trkpt>
      <trkpt lat="50.11611" lon="2.26791">
        <ele>146.74</ele>
        <time>2022-06-01T12:19:26Z</time>
      </trkpt>
      <trkpt lat="50.1162" lon="2.26825">
        <ele>146.26</ele>
        <time>2022-06-01T12:19:43Z</time>
      </trkpt>
      <trkpt lat="50.11631" lon="2.26853">
        <ele>146.26</ele>
        <time>2022-06-01T12:19:59Z</time>
      </trkpt>
      <trkpt lat="50.11643" lon="2.26882">
        <ele>146.26</ele>
        <time>2022-06-01T12:20:15Z</time>
      </trkpt>
      <trkpt lat="50.11655" lon="2.26912">
        <ele>145.3</ele>
        <time>2022-06-01T12:20:32Z</time>
      </trkpt>
      <trkpt lat="50.11664" lon="2.26943">
        <ele>144.82</ele>
        <time>2022-06-01T12:20:48Z</time>
      </trkpt>
      <trkpt lat="50.11671" lon="2.26976">
        <ele>144.82</ele>
        <time>2022-06-01T12:21:05Z</time>
      </trkpt>
      <trkpt lat="50.11678" lon="2.27011">
        <ele>145.78</ele>
        <time>2022-06-01T12:21:22Z</time>
      </trkpt>
      <trkpt lat="50.11683" lon="2.27049">
        <ele>145.3</ele>
        <time>2022-06-01T12:21:40Z</time>
      </trkpt>
      <trkpt lat="50.11684" lon="2.27083">
        <ele>144.34</ele>
        <time>2022-06-01T12:21:56Z</time>
      </trkpt>
      <trkpt lat="50.11684" lon="2.27123">
        <ele>142.89</ele>
        <time>2022-06-01T12:22:14Z</time>
      </trkpt>
      <trkpt lat="50.11684" lon="2.27161">
        <ele>142.41</ele>
        <time>2022-06-01T12:22:32Z</time>
      </trkpt>
      <trkpt lat="50.11686" lon="2.27196">
        <ele>141.45</ele>
        <time>2022-06-01T12:22:49Z</time>
      </trkpt>
      <trkpt lat="50.11692" lon="2.2723">
        <ele>141.45</ele>
        <time>2022-06-01T12:23:06Z</time>
      </trkpt>
      <trkpt lat="50.11704" lon="2.27259">
        <ele>140.97</ele>
        <time>2022-06-01T12:23:23Z</time>
      </trkpt>
      <trkpt lat="50.11718" lon="2.27281">
        <ele>140.01</ele>
        <time>2022-06-01T12:23:38Z</time>
      </trkpt>
      <trkpt lat="50.11733" lon="2.27301">
        <ele>139.53</ele>
        <time>2022-06-01T12:23:53Z</time>
      </trkpt>
      <trkpt lat="50.11748" lon="2.27318">
        <ele>139.53</ele>
        <time>2022-06-01T12:24:07Z</time>
      </trkpt>
      <trkpt lat="50.11764" lon="2.27334">
        <ele>139.05</ele>
        <time>2022-06-01T12:24:22Z</time>
      </trkpt>
      <trkpt lat="50.11781" lon="2.27351">
        <ele>138.57</ele>
        <time>2022-06-01T12:24:37Z</time>
      </trkpt>
      <trkpt lat="50.11796" lon="2.27367">
        <ele>138.09</ele>
        <time>2022-06-01T12:24:51Z</time>
      </trkpt>
      <trkpt lat="50.1181" lon="2.27383">
        <ele>138.09</ele>
        <time>2022-06-01T12:25:04Z</time>
      </trkpt>
      <trkpt lat="50.11825" lon="2.274">
        <ele>137.13</ele>
        <time>2022-06-01T12:25:18Z</time>
      </trkpt>
      <trkpt lat="50.11842" lon="2.27419">
        <ele>135.68</ele>
        <time>2022-06-01T12:25:34Z</time>
      </trkpt>
      <trkpt lat="50.11858" lon="2.27436">
        <ele>134.72</ele>
        <time>2022-06-01T12:25:50Z</time>
      </trkpt>
      <trkpt lat="50.11871" lon="2.2745">
        <ele>132.8</ele>
        <time>2022-06-01T12:26:04Z</time>
      </trkpt>
      <trkpt lat="50.11884" lon="2.27464">
        <ele>131.84</ele>
        <time>2022-06-01T12:26:17Z</time>
      </trkpt>
      <trkpt lat="50.11899" lon="2.27476">
        <ele>131.36</ele>
        <time>2022-06-01T12:26:31Z</time>
      </trkpt>
      <trkpt lat="50.11915" lon="2.27487">
        <ele>130.4</ele>
        <time>2022-06-01T12:26:45Z</time>
      </trkpt>
      <trkpt lat="50.11932" lon="2.27499">
        <ele>129.92</ele>
        <time>2022-06-01T12:26:59Z</time>
      </trkpt>
      <trkpt lat="50.11949" lon="2.27509">
        <ele>129.43</ele>
        <time>2022-06-01T12:27:13Z</time>
      </trkpt>
      <trkpt lat="50.11965" lon="2.27521">
        <ele>129.43</ele>
        <time>2022-06-01T12:27:26Z</time>
      </trkpt>
      <trkpt lat="50.1198" lon="2.27539">
        <ele>128.95</ele>
        <time>2022-06-01T12:27:40Z</time>
      </trkpt>
      <trkpt lat="50.11994" lon="2.27557">
        <ele>128.47</ele>
        <time>2022-06-01T12:27:54Z</time>
      </trkpt>
      <trkpt lat="50.12006" lon="2.27576">
        <ele>127.99</ele>
        <time>2022-06-01T12:28:08Z</time>
      </trkpt>
      <trkpt lat="50.12014" lon="2.27592">
        <ele>127.99</ele>
        <time>2022-06-01T12:28:19Z</time>
      </trkpt>
      <trkpt lat="50.12015" lon="2.27597">
        <ele>127.99</ele>
        <time>2022-06-01T12:28:22Z</time>
      </trkpt>
      <trkpt lat="50.12029" lon="2.27619">
        <ele>126.07</ele>
        <time>2022-06-01T12:28:39Z</time>
      </trkpt>
      <trkpt lat="50.12042" lon="2.27634">
        <ele>122.22</ele>
        <time>2022-06-01T12:28:53Z</time>
      </trkpt>
      <trkpt lat="50.12051" lon="2.27651">
        <ele>119.82</ele>
        <time>2022-06-01T12:29:06Z</time>
      </trkpt>
      <trkpt lat="50.12049" lon="2.27673">
        <ele>117.9</ele>
        <time>2022-06-01T12:29:20Z</time>
      </trkpt>
      <trkpt lat="50.12043" lon="2.27681">
        <ele>115.01</ele>
        <time>2022-06-01T12:29:28Z</time>
      </trkpt>
      <trkpt lat="50.12029" lon="2.27709">
        <ele>112.13</ele>
        <time>2022-06-01T12:29:43Z</time>
      </trkpt>
      <trkpt lat="50.12015" lon="2.27732">
        <ele>114.53</ele>
        <time>2022-06-01T12:29:56Z</time>
      </trkpt>
      <trkpt lat="50.11996" lon="2.27757">
        <ele>116.94</ele>
        <time>2022-06-01T12:30:13Z</time>
      </trkpt>
      <trkpt lat="50.11978" lon="2.27778">
        <ele>117.42</ele>
        <time>2022-06-01T12:30:29Z</time>
      </trkpt>
      <trkpt lat="50.11964" lon="2.27794">
        <ele>117.42</ele>
        <time>2022-06-01T12:30:43Z</time>
      </trkpt>
      <trkpt lat="50.1195" lon="2.27809">
        <ele>118.38</ele>
        <time>2022-06-01T12:30:57Z</time>
      </trkpt>
      <trkpt lat="50.11934" lon="2.27824">
        <ele>119.82</ele>
        <time>2022-06-01T12:31:12Z</time>
      </trkpt>
      <trkpt lat="50.11925" lon="2.27833">
        <ele>121.26</ele>
        <time>2022-06-01T12:31:21Z</time>
      </trkpt>
      <trkpt lat="50.11924" lon="2.27837">
        <ele>121.74</ele>
        <time>2022-06-01T12:31:25Z</time>
      </trkpt>
      <trkpt lat="50.11936" lon="2.27843">
        <ele>122.71</ele>
        <time>2022-06-01T12:31:39Z</time>
      </trkpt>
      <trkpt lat="50.11944" lon="2.27847">
        <ele>122.71</ele>
        <time>2022-06-01T12:31:46Z</time>
      </trkpt>
      <trkpt lat="50.11961" lon="2.27855">
        <ele>121.74</ele>
        <time>2022-06-01T12:32:00Z</time>
      </trkpt>
      <trkpt lat="50.11978" lon="2.27866">
        <ele>121.26</ele>
        <time>2022-06-01T12:32:15Z</time>
      </trkpt>
      <trkpt lat="50.11994" lon="2.27876">
        <ele>120.3</ele>
        <time>2022-06-01T12:32:29Z</time>
      </trkpt>
      <trkpt lat="50.12011" lon="2.27887">
        <ele>118.86</ele>
        <time>2022-06-01T12:32:44Z</time>
      </trkpt>
      <trkpt lat="50.1203" lon="2.27898">
        <ele>118.38</ele>
        <time>2022-06-01T12:33:00Z</time>
      </trkpt>
      <trkpt lat="50.12044" lon="2.27908">
        <ele>117.42</ele>
        <time>2022-06-01T12:33:13Z</time>
      </trkpt>
      <trkpt lat="50.1206" lon="2.27918">
        <ele>117.42</ele>
        <time>2022-06-01T12:33:26Z</time>
      </trkpt>
      <trkpt lat="50.12076" lon="2.27926">
        <ele>117.9</ele>
        <time>2022-06-01T12:33:38Z</time>
      </trkpt>
      <trkpt lat="50.12093" lon="2.27936">
        <ele>116.46</ele>
        <time>2022-06-01T12:33:51Z</time>
      </trkpt>
      <trkpt lat="50.12109" lon="2.27949">
        <ele>115.01</ele>
        <time>2022-06-01T12:34:05Z</time>
      </trkpt>
      <trkpt lat="50.12125" lon="2.2796">
        <ele>113.09</ele>
        <time>2022-06-01T12:34:19Z</time>
      </trkpt>
      <trkpt lat="50.1214" lon="2.2797">
        <ele>112.13</ele>
        <time>2022-06-01T12:34:33Z</time>
      </trkpt>
      <trkpt lat="50.12154" lon="2.27979">
        <ele>113.09</ele>
        <time>2022-06-01T12:34:44Z</time>
      </trkpt>
      <trkpt lat="50.12168" lon="2.2799">
        <ele>113.09</ele>
        <time>2022-06-01T12:34:58Z</time>
      </trkpt>
      <trkpt lat="50.1218" lon="2.28">
        <ele>114.05</ele>
        <time>2022-06-01T12:35:11Z</time>
      </trkpt>
      <trkpt lat="50.1219" lon="2.28012">
        <ele>116.46</ele>
        <time>2022-06-01T12:35:23Z</time>
      </trkpt>
      <trkpt lat="50.12195" lon="2.28013">
        <ele>118.86</ele>
        <time>2022-06-01T12:35:34Z</time>
      </trkpt>
      <trkpt lat="50.12198" lon="2.28015">
        <ele>123.19</ele>
        <time>2022-06-01T12:35:46Z</time>
      </trkpt>
      <trkpt lat="50.12199" lon="2.28016">
        <ele>126.55</ele>
        <time>2022-06-01T12:36:01Z</time>
      </trkpt>
      <trkpt lat="50.122" lon="2.28018">
        <ele>127.51</ele>
        <time>2022-06-01T12:36:15Z</time>
      </trkpt>
      <trkpt lat="50.12201" lon="2.2802">
        <ele>128.47</ele>
        <time>2022-06-01T12:36:33Z</time>
      </trkpt>
      <trkpt lat="50.12201" lon="2.2802">
        <ele>128.95</ele>
        <time>2022-06-01T12:36:47Z</time>
      </trkpt>
      <trkpt lat="50.12202" lon="2.2802">
        <ele>129.43</ele>
        <time>2022-06-01T12:36:57Z</time>
      </trkpt>
      <trkpt lat="50.12203" lon="2.28021">
        <ele>130.4</ele>
        <time>2022-06-01T12:37:12Z</time>
      </trkpt>
      <trkpt lat="50.12204" lon="2.28022">
        <ele>131.36</ele>
        <time>2022-06-01T12:37:34Z</time>
      </trkpt>
      <trkpt lat="50.12204" lon="2.28021">
        <ele>131.36</ele>
        <time>2022-06-01T12:37:50Z</time>
      </trkpt>
      <trkpt lat="50.12207" lon="2.28022">
        <ele>132.32</ele>
        <time>2022-06-01T12:38:05Z</time>
      </trkpt>
      <trkpt lat="50.12219" lon="2.28029">
        <ele>131.36</ele>
        <time>2022-06-01T12:38:17Z</time>
      </trkpt>
      <trkpt lat="50.12233" lon="2.28038">
        <ele>129.92</ele>
        <time>2022-06-01T12:38:29Z</time>
      </trkpt>
      <trkpt lat="50.12246" lon="2.28052">
        <ele>128.95</ele>
        <time>2022-06-01T12:38:41Z</time>
      </trkpt>
      <trkpt lat="50.12249" lon="2.28055">
        <ele>128.95</ele>
        <time>2022-06-01T12:38:44Z</time>
      </trkpt>
      <trkpt lat="50.12253" lon="2.2807">
        <ele>129.43</ele>
        <time>2022-06-01T12:38:56Z</time>
      </trkpt>
      <trkpt lat="50.1225" lon="2.28073">
        <ele>130.4</ele>
        <time>2022-06-01T12:39:06Z</time>
      </trkpt>
      <trkpt lat="50.12249" lon="2.28074">
        <ele>129.92</ele>
        <time>2022-06-01T12:39:07Z</time>
      </trkpt>
      <trkpt lat="50.12245" lon="2.2808">
        <ele>129.92</ele>
        <time>2022-06-01T12:39:12Z</time>
      </trkpt>
      <trkpt lat="50.12234" lon="2.28104">
        <ele>129.92</ele>
        <time>2022-06-01T12:39:27Z</time>
      </trkpt>
      <trkpt lat="50.12225" lon="2.28117">
        <ele>129.92</ele>
        <time>2022-06-01T12:39:41Z</time>
      </trkpt>
      <trkpt lat="50.1222" lon="2.28131">
        <ele>129.43</ele>
        <time>2022-06-01T12:39:51Z</time>
      </trkpt>
      <trkpt lat="50.12212" lon="2.28148">
        <ele>129.92</ele>
        <time>2022-06-01T12:40:03Z</time>
      </trkpt>
      <trkpt lat="50.12203" lon="2.28167">
        <ele>130.4</ele>
        <time>2022-06-01T12:40:16Z</time>
      </trkpt>
      <trkpt lat="50.12195" lon="2.28179">
        <ele>129.43</ele>
        <time>2022-06-01T12:40:27Z</time>
      </trkpt>
      <trkpt lat="50.12186" lon="2.28199">
        <ele>130.4</ele>
        <time>2022-06-01T12:40:40Z</time>
      </trkpt>
      <trkpt lat="50.12177" lon="2.28218">
        <ele>131.84</ele>
        <time>2022-06-01T12:40:52Z</time>
      </trkpt>
      <trkpt lat="50.12167" lon="2.28238">
        <ele>133.28</ele>
        <time>2022-06-01T12:41:05Z</time>
      </trkpt>
      <trkpt lat="50.12164" lon="2.28244">
        <ele>133.76</ele>
        <time>2022-06-01T12:41:09Z</time>
      </trkpt>
      <trkpt lat="50.12161" lon="2.28249">
        <ele>134.24</ele>
        <time>2022-06-01T12:41:12Z</time>
      </trkpt>
      <trkpt lat="50.12152" lon="2.28263">
        <ele>135.2</ele>
        <time>2022-06-01T12:41:23Z</time>
      </trkpt>
      <trkpt lat="50.12142" lon="2.2826">
        <ele>135.2</ele>
        <time>2022-06-01T12:41:31Z</time>
      </trkpt>
      <trkpt lat="50.1213" lon="2.2824">
        <ele>136.64</ele>
        <time>2022-06-01T12:41:45Z</time>
      </trkpt>
      <trkpt lat="50.12129" lon="2.28238">
        <ele>137.13</ele>
        <time>2022-06-01T12:41:47Z</time>
      </trkpt>
      <trkpt lat="50.12122" lon="2.28227">
        <ele>137.13</ele>
        <time>2022-06-01T12:41:55Z</time>
      </trkpt>
      <trkpt lat="50.12119" lon="2.28226">
        <ele>137.13</ele>
        <time>2022-06-01T12:41:58Z</time>
      </trkpt>
      <trkpt lat="50.12117" lon="2.28227">
        <ele>137.13</ele>
        <time>2022-06-01T12:42:00Z</time>
      </trkpt>
      <trkpt lat="50.12103" lon="2.28245">
        <ele>136.16</ele>
        <time>2022-06-01T12:42:15Z</time>
      </trkpt>
      <trkpt lat="50.12091" lon="2.2826">
        <ele>136.64</ele>
        <time>2022-06-01T12:42:28Z</time>
      </trkpt>
      <trkpt lat="50.12078" lon="2.28275">
        <ele>137.61</ele>
        <time>2022-06-01T12:42:41Z</time>
      </trkpt>
      <trkpt lat="50.12065" lon="2.2829">
        <ele>138.09</ele>
        <time>2022-06-01T12:42:55Z</time>
      </trkpt>
      <trkpt lat="50.12048" lon="2.28308">
        <ele>138.57</ele>
        <time>2022-06-01T12:43:11Z</time>
      </trkpt>
      <trkpt lat="50.12034" lon="2.28325">
        <ele>138.57</ele>
        <time>2022-06-01T12:43:26Z</time>
      </trkpt>
      <trkpt lat="50.12021" lon="2.2834">
        <ele>138.09</ele>
        <time>2022-06-01T12:43:39Z</time>
      </trkpt>
      <trkpt lat="50.12004" lon="2.28357">
        <ele>137.61</ele>
        <time>2022-06-01T12:43:55Z</time>
      </trkpt>
      <trkpt lat="50.11991" lon="2.28371">
        <ele>137.61</ele>
        <time>2022-06-01T12:44:08Z</time>
      </trkpt>
      <trkpt lat="50.11976" lon="2.28388">
        <ele>137.61</ele>
        <time>2022-06-01T12:44:23Z</time>
      </trkpt>
      <trkpt lat="50.1196" lon="2.28406">
        <ele>136.64</ele>
        <time>2022-06-01T12:44:39Z</time>
      </trkpt>
      <trkpt lat="50.11948" lon="2.28418">
        <ele>136.16</ele>
        <time>2022-06-01T12:44:51Z</time>
      </trkpt>
      <trkpt lat="50.11934" lon="2.28436">
        <ele>135.2</ele>
        <time>2022-06-01T12:45:07Z</time>
      </trkpt>
      <trkpt lat="50.11918" lon="2.28452">
        <ele>135.2</ele>
        <time>2022-06-01T12:45:22Z</time>
      </trkpt>
      <trkpt lat="50.11904" lon="2.2847">
        <ele>135.68</ele>
        <time>2022-06-01T12:45:37Z</time>
      </trkpt>
      <trkpt lat="50.1189" lon="2.28487">
        <ele>135.2</ele>
        <time>2022-06-01T12:45:51Z</time>
      </trkpt>
      <trkpt lat="50.11875" lon="2.28507">
        <ele>134.72</ele>
        <time>2022-06-01T12:46:07Z</time>
      </trkpt>
      <trkpt lat="50.11861" lon="2.28521">
        <ele>135.2</ele>
        <time>2022-06-01T12:46:22Z</time>
      </trkpt>
      <trkpt lat="50.11859" lon="2.28523">
        <ele>134.24</ele>
        <time>2022-06-01T12:46:36Z</time>
      </trkpt>
      <trkpt lat="50.11858" lon="2.28525">
        <ele>134.72</ele>
        <time>2022-06-01T12:46:55Z</time>
      </trkpt>
      <trkpt lat="50.11858" lon="2.28526">
        <ele>134.72</ele>
        <time>2022-06-01T12:47:13Z</time>
      </trkpt>
      <trkpt lat="50.11857" lon="2.28527">
        <ele>135.2</ele>
        <time>2022-06-01T12:47:33Z</time>
      </trkpt>
      <trkpt lat="50.11857" lon="2.28527">
        <ele>135.2</ele>
        <time>2022-06-01T12:47:40Z</time>
      </trkpt>
      <trkpt lat="50.1186" lon="2.28551">
        <ele>134.24</ele>
        <time>2022-06-01T12:47:55Z</time>
      </trkpt>
      <trkpt lat="50.11867" lon="2.28577">
        <ele>133.76</ele>
        <time>2022-06-01T12:48:09Z</time>
      </trkpt>
      <trkpt lat="50.11876" lon="2.28607">
        <ele>132.8</ele>
        <time>2022-06-01T12:48:25Z</time>
      </trkpt>
      <trkpt lat="50.11889" lon="2.28636">
        <ele>134.24</ele>
        <time>2022-06-01T12:48:42Z</time>
      </trkpt>
      <trkpt lat="50.11902" lon="2.28667">
        <ele>135.2</ele>
        <time>2022-06-01T12:48:59Z</time>
      </trkpt>
      <trkpt lat="50.11915" lon="2.28691">
        <ele>135.68</ele>
        <time>2022-06-01T12:49:13Z</time>
      </trkpt>
      <trkpt lat="50.11927" lon="2.28716">
        <ele>136.16</ele>
        <time>2022-06-01T12:49:28Z</time>
      </trkpt>
      <trkpt lat="50.1194" lon="2.28742">
        <ele>136.16</ele>
        <time>2022-06-01T12:49:44Z</time>
      </trkpt>
      <trkpt lat="50.11955" lon="2.28766">
        <ele>137.61</ele>
        <time>2022-06-01T12:50:00Z</time>
      </trkpt>
      <trkpt lat="50.11971" lon="2.28796">
        <ele>137.13</ele>
        <time>2022-06-01T12:50:19Z</time>
      </trkpt>
      <trkpt lat="50.11982" lon="2.28819">
        <ele>137.13</ele>
        <time>2022-06-01T12:50:33Z</time>
      </trkpt>
      <trkpt lat="50.11996" lon="2.28847">
        <ele>136.64</ele>
        <time>2022-06-01T12:50:50Z</time>
      </trkpt>
      <trkpt lat="50.1201" lon="2.28873">
        <ele>135.68</ele>
        <time>2022-06-01T12:51:06Z</time>
      </trkpt>
      <trkpt lat="50.12022" lon="2.28897">
        <ele>136.64</ele>
        <time>2022-06-01T12:51:21Z</time>
      </trkpt>
      <trkpt lat="50.12035" lon="2.28923">
        <ele>135.68</ele>
        <time>2022-06-01T12:51:37Z</time>
      </trkpt>
      <trkpt lat="50.12047" lon="2.28949">
        <ele>134.24</ele>
        <time>2022-06-01T12:51:53Z</time>
      </trkpt>
      <trkpt lat="50.1206" lon="2.28973">
        <ele>133.28</ele>
        <time>2022-06-01T12:52:08Z</time>
      </trkpt>
      <trkpt lat="50.12074" lon="2.28997">
        <ele>133.28</ele>
        <time>2022-06-01T12:52:23Z</time>
      </trkpt>
      <trkpt lat="50.12086" lon="2.29021">
        <ele>134.24</ele>
        <time>2022-06-01T12:52:37Z</time>
      </trkpt>
      <trkpt lat="50.12098" lon="2.29045">
        <ele>135.2</ele>
        <time>2022-06-01T12:52:52Z</time>
      </trkpt>
      <trkpt lat="50.12095" lon="2.29062">
        <ele>134.72</ele>
        <time>2022-06-01T12:53:03Z</time>
      </trkpt>
      <trkpt lat="50.12095" lon="2.29063">
        <ele>135.2</ele>
        <time>2022-06-01T12:53:13Z</time>
      </trkpt>
      <trkpt lat="50.12094" lon="2.29063">
        <ele>135.2</ele>
        <time>2022-06-01T12:53:24Z</time>
      </trkpt>
      <trkpt lat="50.12094" lon="2.29063">
        <ele>134.72</ele>
        <time>2022-06-01T12:53:38Z</time>
      </trkpt>
      <trkpt lat="50.12093" lon="2.29063">
        <ele>135.2</ele>
        <time>2022-06-01T12:54:09Z</time>
      </trkpt>
      <trkpt lat="50.12093" lon="2.29064">
        <ele>135.2</ele>
        <time>2022-06-01T12:54:30Z</time>
      </trkpt>
      <trkpt lat="50.12091" lon="2.29067">
        <ele>135.2</ele>
        <time>2022-06-01T12:54:34Z</time>
      </trkpt>
      <trkpt lat="50.12078" lon="2.29083">
        <ele>134.24</ele>
        <time>2022-06-01T12:54:48Z</time>
      </trkpt>
      <trkpt lat="50.12063" lon="2.29102">
        <ele>133.76</ele>
        <time>2022-06-01T12:55:02Z</time>
      </trkpt>
      <trkpt lat="50.12053" lon="2.29115">
        <ele>133.28</ele>
        <time>2022-06-01T12:55:15Z</time>
      </trkpt>
      <trkpt lat="50.12043" lon="2.29128">
        <ele>132.32</ele>
        <time>2022-06-01T12:55:28Z</time>
      </trkpt>
      <trkpt lat="50.12032" lon="2.29142">
        <ele>132.32</ele>
        <time>2022-06-01T12:55:40Z</time>
      </trkpt>
      <trkpt lat="50.12022" lon="2.29154">
        <ele>132.32</ele>
        <time>2022-06-01T12:55:51Z</time>
      </trkpt>
      <trkpt lat="50.1201" lon="2.29171">
        <ele>132.32</ele>
        <time>2022-06-01T12:56:04Z</time>
      </trkpt>
      <trkpt lat="50.11997" lon="2.29188">
        <ele>131.84</ele>
        <time>2022-06-01T12:56:18Z</time>
      </trkpt>
      <trkpt lat="50.11983" lon="2.29205">
        <ele>129.43</ele>
        <time>2022-06-01T12:56:32Z</time>
      </trkpt>
      <trkpt lat="50.11968" lon="2.2922">
        <ele>128.47</ele>
        <time>2022-06-01T12:56:46Z</time>
      </trkpt>
      <trkpt lat="50.11958" lon="2.29234">
        <ele>128.47</ele>
        <time>2022-06-01T12:56:57Z</time>
      </trkpt>
      <trkpt lat="50.11946" lon="2.2925">
        <ele>128.47</ele>
        <time>2022-06-01T12:57:09Z</time>
      </trkpt>
      <trkpt lat="50.11932" lon="2.29274">
        <ele>127.51</ele>
        <time>2022-06-01T12:57:24Z</time>
      </trkpt>
      <trkpt lat="50.11926" lon="2.29295">
        <ele>127.51</ele>
        <time>2022-06-01T12:57:36Z</time>
      </trkpt>
      <trkpt lat="50.11926" lon="2.29306">
        <ele>127.99</ele>
        <time>2022-06-01T12:57:42Z</time>
      </trkpt>
      <trkpt lat="50.11924" lon="2.29332">
        <ele>128.47</ele>
        <time>2022-06-01T12:57:57Z</time>
      </trkpt>
      <trkpt lat="50.11923" lon="2.29341">
        <ele>127.99</ele>
        <time>2022-06-01T12:58:04Z</time>
      </trkpt>
      <trkpt lat="50.11923" lon="2.29349">
        <ele>128.47</ele>
        <time>2022-06-01T12:58:10Z</time>
      </trkpt>
      <trkpt lat="50.11922" lon="2.29352">
        <ele>128.47</ele>
        <time>2022-06-01T12:58:12Z</time>
      </trkpt>
      <trkpt lat="50.11915" lon="2.29375">
        <ele>127.99</ele>
        <time>2022-06-01T12:58:26Z</time>
      </trkpt>
      <trkpt lat="50.11915" lon="2.29376">
        <ele>127.99</ele>
        <time>2022-06-01T12:58:27Z</time>
      </trkpt>
      <trkpt lat="50.11907" lon="2.29395">
        <ele>127.99</ele>
        <time>2022-06-01T12:58:39Z</time>
      </trkpt>
      <trkpt lat="50.11895" lon="2.29415">
        <ele>125.59</ele>
        <time>2022-06-01T12:58:54Z</time>
      </trkpt>
      <trkpt lat="50.11885" lon="2.29429">
        <ele>125.11</ele>
        <time>2022-06-01T12:59:06Z</time>
      </trkpt>
      <trkpt lat="50.11873" lon="2.29445">
        <ele>125.59</ele>
        <time>2022-06-01T12:59:20Z</time>
      </trkpt>
      <trkpt lat="50.11862" lon="2.29462">
        <ele>125.11</ele>
        <time>2022-06-01T12:59:34Z</time>
      </trkpt>
      <trkpt lat="50.11849" lon="2.29479">
        <ele>124.15</ele>
        <time>2022-06-01T12:59:49Z</time>
      </trkpt>
      <trkpt lat="50.11839" lon="2.29495">
        <ele>125.11</ele>
        <time>2022-06-01T13:00:02Z</time>
      </trkpt>
      <trkpt lat="50.11836" lon="2.29504">
        <ele>125.59</ele>
        <time>2022-06-01T13:00:12Z</time>
      </trkpt>
      <trkpt lat="50.11836" lon="2.2951">
        <ele>127.03</ele>
        <time>2022-06-01T13:00:20Z</time>
      </trkpt>
      <trkpt lat="50.11836" lon="2.29513">
        <ele>127.51</ele>
        <time>2022-06-01T13:00:23Z</time>
      </trkpt>
      <trkpt lat="50.11837" lon="2.29537">
        <ele>128.95</ele>
        <time>2022-06-01T13:00:37Z</time>
      </trkpt>
      <trkpt lat="50.11844" lon="2.29552">
        <ele>127.51</ele>
        <time>2022-06-01T13:00:48Z</time>
      </trkpt>
      <trkpt lat="50.11856" lon="2.2957">
        <ele>125.59</ele>
        <time>2022-06-01T13:01:03Z</time>
      </trkpt>
      <trkpt lat="50.1187" lon="2.29588">
        <ele>126.55</ele>
        <time>2022-06-01T13:01:18Z</time>
      </trkpt>
      <trkpt lat="50.11883" lon="2.29604">
        <ele>127.03</ele>
        <time>2022-06-01T13:01:32Z</time>
      </trkpt>
      <trkpt lat="50.11895" lon="2.29619">
        <ele>127.99</ele>
        <time>2022-06-01T13:01:44Z</time>
      </trkpt>
      <trkpt lat="50.11908" lon="2.29637">
        <ele>127.51</ele>
        <time>2022-06-01T13:01:58Z</time>
      </trkpt>
      <trkpt lat="50.11922" lon="2.29657">
        <ele>126.07</ele>
        <time>2022-06-01T13:02:14Z</time>
      </trkpt>
      <trkpt lat="50.11935" lon="2.29673">
        <ele>127.51</ele>
        <time>2022-06-01T13:02:29Z</time>
      </trkpt>
      <trkpt lat="50.11949" lon="2.2969">
        <ele>128.95</ele>
        <time>2022-06-01T13:02:44Z</time>
      </trkpt>
      <trkpt lat="50.1196" lon="2.29706">
        <ele>129.92</ele>
        <time>2022-06-01T13:02:57Z</time>
      </trkpt>
      <trkpt lat="50.11971" lon="2.29724">
        <ele>129.92</ele>
        <time>2022-06-01T13:03:10Z</time>
      </trkpt>
      <trkpt lat="50.11984" lon="2.29742">
        <ele>130.4</ele>
        <time>2022-06-01T13:03:24Z</time>
      </trkpt>
      <trkpt lat="50.11995" lon="2.29757">
        <ele>130.88</ele>
        <time>2022-06-01T13:03:37Z</time>
      </trkpt>
      <trkpt lat="50.12008" lon="2.29772">
        <ele>130.88</ele>
        <time>2022-06-01T13:03:51Z</time>
      </trkpt>
      <trkpt lat="50.12018" lon="2.29787">
        <ele>131.36</ele>
        <time>2022-06-01T13:04:03Z</time>
      </trkpt>
      <trkpt lat="50.12029" lon="2.29801">
        <ele>131.36</ele>
        <time>2022-06-01T13:04:16Z</time>
      </trkpt>
      <trkpt lat="50.1204" lon="2.29817">
        <ele>131.84</ele>
        <time>2022-06-01T13:04:29Z</time>
      </trkpt>
      <trkpt lat="50.12052" lon="2.29834">
        <ele>132.8</ele>
        <time>2022-06-01T13:04:43Z</time>
      </trkpt>
      <trkpt lat="50.12062" lon="2.29847">
        <ele>132.8</ele>
        <time>2022-06-01T13:04:55Z</time>
      </trkpt>
      <trkpt lat="50.12064" lon="2.2985">
        <ele>132.8</ele>
        <time>2022-06-01T13:04:58Z</time>
      </trkpt>
      <trkpt lat="50.12063" lon="2.29856">
        <ele>131.36</ele>
        <time>2022-06-01T13:05:02Z</time>
      </trkpt>
      <trkpt lat="50.12055" lon="2.29879">
        <ele>127.99</ele>
        <time>2022-06-01T13:05:18Z</time>
      </trkpt>
      <trkpt lat="50.12052" lon="2.29904">
        <ele>127.03</ele>
        <time>2022-06-01T13:05:32Z</time>
      </trkpt>
      <trkpt lat="50.12048" lon="2.29928">
        <ele>126.55</ele>
        <time>2022-06-01T13:05:45Z</time>
      </trkpt>
      <trkpt lat="50.12044" lon="2.2995">
        <ele>125.11</ele>
        <time>2022-06-01T13:05:58Z</time>
      </trkpt>
      <trkpt lat="50.12037" lon="2.29975">
        <ele>124.15</ele>
        <time>2022-06-01T13:06:13Z</time>
      </trkpt>
      <trkpt lat="50.12031" lon="2.29998">
        <ele>123.67</ele>
        <time>2022-06-01T13:06:27Z</time>
      </trkpt>
      <trkpt lat="50.12024" lon="2.30026">
        <ele>123.19</ele>
        <time>2022-06-01T13:06:43Z</time>
      </trkpt>
      <trkpt lat="50.12017" lon="2.30051">
        <ele>122.71</ele>
        <time>2022-06-01T13:06:58Z</time>
      </trkpt>
      <trkpt lat="50.1201" lon="2.30079">
        <ele>122.71</ele>
        <time>2022-06-01T13:07:13Z</time>
      </trkpt>
      <trkpt lat="50.12002" lon="2.30113">
        <ele>121.26</ele>
        <time>2022-06-01T13:07:30Z</time>
      </trkpt>
      <trkpt lat="50.11995" lon="2.30142">
        <ele>120.78</ele>
        <time>2022-06-01T13:07:45Z</time>
      </trkpt>
      <trkpt lat="50.11987" lon="2.30173">
        <ele>119.82</ele>
        <time>2022-06-01T13:08:00Z</time>
      </trkpt>
      <trkpt lat="50.11979" lon="2.30204">
        <ele>119.34</ele>
        <time>2022-06-01T13:08:16Z</time>
      </trkpt>
      <trkpt lat="50.11966" lon="2.30224">
        <ele>118.38</ele>
        <time>2022-06-01T13:08:31Z</time>
      </trkpt>
      <trkpt lat="50.11954" lon="2.30243">
        <ele>117.9</ele>
        <time>2022-06-01T13:08:45Z</time>
      </trkpt>
      <trkpt lat="50.11947" lon="2.30267">
        <ele>116.46</ele>
        <time>2022-06-01T13:08:58Z</time>
      </trkpt>
      <trkpt lat="50.11941" lon="2.30296">
        <ele>114.53</ele>
        <time>2022-06-01T13:09:13Z</time>
      </trkpt>
      <trkpt lat="50.11941" lon="2.3032">
        <ele>115.01</ele>
        <time>2022-06-01T13:09:26Z</time>
      </trkpt>
      <trkpt lat="50.1194" lon="2.30323">
        <ele>115.01</ele>
        <time>2022-06-01T13:09:29Z</time>
      </trkpt>
      <trkpt lat="50.11935" lon="2.30331">
        <ele>114.05</ele>
        <time>2022-06-01T13:09:36Z</time>
      </trkpt>
      <trkpt lat="50.11931" lon="2.30334">
        <ele>113.57</ele>
        <time>2022-06-01T13:09:40Z</time>
      </trkpt>
      <trkpt lat="50.11927" lon="2.30342">
        <ele>114.05</ele>
        <time>2022-06-01T13:09:45Z</time>
      </trkpt>
      <trkpt lat="50.11917" lon="2.30357">
        <ele>112.13</ele>
        <time>2022-06-01T13:09:58Z</time>
      </trkpt>
      <trkpt lat="50.11907" lon="2.30369">
        <ele>109.73</ele>
        <time>2022-06-01T13:10:11Z</time>
      </trkpt>
      <trkpt lat="50.11896" lon="2.30386">
        <ele>108.29</ele>
        <time>2022-06-01T13:10:25Z</time>
      </trkpt>
      <trkpt lat="50.11886" lon="2.30402">
        <ele>109.25</ele>
        <time>2022-06-01T13:10:37Z</time>
      </trkpt>
      <trkpt lat="50.11882" lon="2.30412">
        <ele>111.17</ele>
        <time>2022-06-01T13:10:44Z</time>
      </trkpt>
      <trkpt lat="50.11872" lon="2.30427">
        <ele>111.17</ele>
        <time>2022-06-01T13:10:57Z</time>
      </trkpt>
      <trkpt lat="50.11867" lon="2.30438">
        <ele>111.65</ele>
        <time>2022-06-01T13:11:05Z</time>
      </trkpt>
      <trkpt lat="50.11858" lon="2.30451">
        <ele>110.69</ele>
        <time>2022-06-01T13:11:16Z</time>
      </trkpt>
      <trkpt lat="50.11852" lon="2.30463">
        <ele>110.21</ele>
        <time>2022-06-01T13:11:26Z</time>
      </trkpt>
      <trkpt lat="50.11841" lon="2.3048">
        <ele>109.73</ele>
        <time>2022-06-01T13:11:40Z</time>
      </trkpt>
      <trkpt lat="50.11831" lon="2.30495">
        <ele>106.84</ele>
        <time>2022-06-01T13:11:53Z</time>
      </trkpt>
      <trkpt lat="50.11819" lon="2.30505">
        <ele>103.48</ele>
        <time>2022-06-01T13:12:04Z</time>
      </trkpt>
      <trkpt lat="50.11809" lon="2.30516">
        <ele>100.6</ele>
        <time>2022-06-01T13:12:16Z</time>
      </trkpt>
      <trkpt lat="50.11806" lon="2.30519">
        <ele>100.11</ele>
        <time>2022-06-01T13:12:19Z</time>
      </trkpt>
      <trkpt lat="50.11795" lon="2.30533">
        <ele>98.19</ele>
        <time>2022-06-01T13:12:33Z</time>
      </trkpt>
      <trkpt lat="50.11786" lon="2.30545">
        <ele>95.31</ele>
        <time>2022-06-01T13:12:47Z</time>
      </trkpt>
      <trkpt lat="50.11774" lon="2.30564">
        <ele>93.87</ele>
        <time>2022-06-01T13:13:03Z</time>
      </trkpt>
      <trkpt lat="50.11764" lon="2.3058">
        <ele>90.98</ele>
        <time>2022-06-01T13:13:17Z</time>
      </trkpt>
      <trkpt lat="50.11755" lon="2.30594">
        <ele>89.54</ele>
        <time>2022-06-01T13:13:28Z</time>
      </trkpt>
      <trkpt lat="50.11743" lon="2.30614">
        <ele>88.1</ele>
        <time>2022-06-01T13:13:42Z</time>
      </trkpt>
      <trkpt lat="50.1173" lon="2.30632">
        <ele>84.25</ele>
        <time>2022-06-01T13:13:58Z</time>
      </trkpt>
      <trkpt lat="50.11717" lon="2.30653">
        <ele>81.85</ele>
        <time>2022-06-01T13:14:12Z</time>
      </trkpt>
      <trkpt lat="50.11705" lon="2.30673">
        <ele>81.85</ele>
        <time>2022-06-01T13:14:25Z</time>
      </trkpt>
      <trkpt lat="50.11691" lon="2.30695">
        <ele>83.29</ele>
        <time>2022-06-01T13:14:40Z</time>
      </trkpt>
      <trkpt lat="50.11681" lon="2.3071">
        <ele>84.73</ele>
        <time>2022-06-01T13:14:52Z</time>
      </trkpt>
      <trkpt lat="50.1167" lon="2.30728">
        <ele>85.69</ele>
        <time>2022-06-01T13:15:06Z</time>
      </trkpt>
      <trkpt lat="50.11659" lon="2.30745">
        <ele>86.18</ele>
        <time>2022-06-01T13:15:20Z</time>
      </trkpt>
      <trkpt lat="50.11656" lon="2.3075">
        <ele>87.14</ele>
        <time>2022-06-01T13:15:29Z</time>
      </trkpt>
      <trkpt lat="50.11655" lon="2.30751">
        <ele>87.14</ele>
        <time>2022-06-01T13:15:38Z</time>
      </trkpt>
      <trkpt lat="50.11654" lon="2.30751">
        <ele>87.62</ele>
        <time>2022-06-01T13:15:52Z</time>
      </trkpt>
      <trkpt lat="50.11654" lon="2.30751">
        <ele>87.62</ele>
        <time>2022-06-01T13:16:09Z</time>
      </trkpt>
      <trkpt lat="50.11653" lon="2.30752">
        <ele>88.1</ele>
        <time>2022-06-01T13:16:30Z</time>
      </trkpt>
      <trkpt lat="50.11653" lon="2.30752">
        <ele>88.1</ele>
        <time>2022-06-01T13:16:48Z</time>
      </trkpt>
      <trkpt lat="50.11653" lon="2.30752">
        <ele>88.1</ele>
        <time>2022-06-01T13:17:02Z</time>
      </trkpt>
      <trkpt lat="50.11652" lon="2.30752">
        <ele>88.58</ele>
        <time>2022-06-01T13:17:21Z</time>
      </trkpt>
      <trkpt lat="50.11652" lon="2.30752">
        <ele>88.1</ele>
        <time>2022-06-01T13:17:43Z</time>
      </trkpt>
      <trkpt lat="50.11652" lon="2.30753">
        <ele>87.62</ele>
        <time>2022-06-01T13:18:06Z</time>
      </trkpt>
      <trkpt lat="50.11652" lon="2.30754">
        <ele>87.62</ele>
        <time>2022-06-01T13:18:28Z</time>
      </trkpt>
      <trkpt lat="50.11651" lon="2.30757">
        <ele>87.14</ele>
        <time>2022-06-01T13:18:47Z</time>
      </trkpt>
      <trkpt lat="50.11651" lon="2.30767">
        <ele>86.66</ele>
        <time>2022-06-01T13:18:56Z</time>
      </trkpt>
      <trkpt lat="50.11652" lon="2.30773">
        <ele>86.66</ele>
        <time>2022-06-01T13:18:58Z</time>
      </trkpt>
      <trkpt lat="50.11657" lon="2.30797">
        <ele>88.1</ele>
        <time>2022-06-01T13:19:11Z</time>
      </trkpt>
      <trkpt lat="50.11659" lon="2.30817">
        <ele>86.66</ele>
        <time>2022-06-01T13:19:23Z</time>
      </trkpt>
      <trkpt lat="50.11659" lon="2.30847">
        <ele>85.69</ele>
        <time>2022-06-01T13:19:37Z</time>
      </trkpt>
      <trkpt lat="50.11656" lon="2.30873">
        <ele>86.18</ele>
        <time>2022-06-01T13:19:50Z</time>
      </trkpt>
      <trkpt lat="50.1165" lon="2.30901">
        <ele>84.73</ele>
        <time>2022-06-01T13:20:05Z</time>
      </trkpt>
      <trkpt lat="50.11641" lon="2.30926">
        <ele>83.77</ele>
        <time>2022-06-01T13:20:19Z</time>
      </trkpt>
      <trkpt lat="50.11626" lon="2.3095">
        <ele>83.77</ele>
        <time>2022-06-01T13:20:35Z</time>
      </trkpt>
      <trkpt lat="50.11612" lon="2.30965">
        <ele>83.77</ele>
        <time>2022-06-01T13:20:49Z</time>
      </trkpt>
      <trkpt lat="50.11603" lon="2.3097">
        <ele>81.85</ele>
        <time>2022-06-01T13:20:56Z</time>
      </trkpt>
      <trkpt lat="50.1159" lon="2.3096">
        <ele>84.25</ele>
        <time>2022-06-01T13:21:08Z</time>
      </trkpt>
      <trkpt lat="50.11574" lon="2.30946">
        <ele>85.21</ele>
        <time>2022-06-01T13:21:23Z</time>
      </trkpt>
      <trkpt lat="50.11559" lon="2.3093">
        <ele>87.14</ele>
        <time>2022-06-01T13:21:37Z</time>
      </trkpt>
      <trkpt lat="50.1155" lon="2.30917">
        <ele>87.14</ele>
        <time>2022-06-01T13:21:49Z</time>
      </trkpt>
      <trkpt lat="50.11537" lon="2.30905">
        <ele>88.1</ele>
        <time>2022-06-01T13:22:02Z</time>
      </trkpt>
      <trkpt lat="50.11527" lon="2.30897">
        <ele>88.1</ele>
        <time>2022-06-01T13:22:16Z</time>
      </trkpt>
      <trkpt lat="50.11519" lon="2.30893">
        <ele>87.62</ele>
        <time>2022-06-01T13:22:23Z</time>
      </trkpt>
      <trkpt lat="50.11508" lon="2.30887">
        <ele>85.21</ele>
        <time>2022-06-01T13:22:36Z</time>
      </trkpt>
      <trkpt lat="50.11496" lon="2.30884">
        <ele>84.25</ele>
        <time>2022-06-01T13:22:48Z</time>
      </trkpt>
      <trkpt lat="50.11483" lon="2.3088">
        <ele>84.25</ele>
        <time>2022-06-01T13:23:00Z</time>
      </trkpt>
      <trkpt lat="50.11479" lon="2.30879">
        <ele>84.25</ele>
        <time>2022-06-01T13:23:03Z</time>
      </trkpt>
      <trkpt lat="50.11468" lon="2.30877">
        <ele>84.73</ele>
        <time>2022-06-01T13:23:14Z</time>
      </trkpt>
      <trkpt lat="50.11457" lon="2.30872">
        <ele>83.29</ele>
        <time>2022-06-01T13:23:28Z</time>
      </trkpt>
      <trkpt lat="50.11446" lon="2.30864">
        <ele>82.33</ele>
        <time>2022-06-01T13:23:40Z</time>
      </trkpt>
      <trkpt lat="50.11435" lon="2.30856">
        <ele>80.89</ele>
        <time>2022-06-01T13:23:51Z</time>
      </trkpt>
      <trkpt lat="50.11419" lon="2.30849">
        <ele>81.85</ele>
        <time>2022-06-01T13:24:05Z</time>
      </trkpt>
      <trkpt lat="50.11404" lon="2.30843">
        <ele>83.77</ele>
        <time>2022-06-01T13:24:17Z</time>
      </trkpt>
      <trkpt lat="50.11397" lon="2.30841">
        <ele>84.25</ele>
        <time>2022-06-01T13:24:21Z</time>
      </trkpt>
      <trkpt lat="50.11388" lon="2.30835">
        <ele>85.69</ele>
        <time>2022-06-01T13:24:33Z</time>
      </trkpt>
      <trkpt lat="50.11373" lon="2.30832">
        <ele>85.21</ele>
        <time>2022-06-01T13:24:44Z</time>
      </trkpt>
      <trkpt lat="50.1136" lon="2.3083">
        <ele>85.21</ele>
        <time>2022-06-01T13:24:58Z</time>
      </trkpt>
      <trkpt lat="50.11353" lon="2.30831">
        <ele>84.25</ele>
        <time>2022-06-01T13:25:10Z</time>
      </trkpt>
      <trkpt lat="50.11337" lon="2.30833">
        <ele>85.21</ele>
        <time>2022-06-01T13:25:21Z</time>
      </trkpt>
      <trkpt lat="50.11327" lon="2.30837">
        <ele>85.69</ele>
        <time>2022-06-01T13:25:31Z</time>
      </trkpt>
      <trkpt lat="50.11315" lon="2.3084">
        <ele>85.21</ele>
        <time>2022-06-01T13:25:44Z</time>
      </trkpt>
      <trkpt lat="50.11309" lon="2.30828">
        <ele>84.73</ele>
        <time>2022-06-01T13:25:56Z</time>
      </trkpt>
      <trkpt lat="50.11305" lon="2.30825">
        <ele>85.21</ele>
        <time>2022-06-01T13:26:10Z</time>
      </trkpt>
      <trkpt lat="50.11304" lon="2.30824">
        <ele>85.69</ele>
        <time>2022-06-01T13:26:25Z</time>
      </trkpt>
      <trkpt lat="50.11303" lon="2.30821">
        <ele>85.21</ele>
        <time>2022-06-01T13:26:36Z</time>
      </trkpt>
      <trkpt lat="50.11292" lon="2.30814">
        <ele>84.25</ele>
        <time>2022-06-01T13:26:46Z</time>
      </trkpt>
      <trkpt lat="50.11278" lon="2.30814">
        <ele>80.89</ele>
        <time>2022-06-01T13:27:00Z</time>
      </trkpt>
      <trkpt lat="50.11265" lon="2.30817">
        <ele>75.12</ele>
        <time>2022-06-01T13:27:12Z</time>
      </trkpt>
      <trkpt lat="50.11255" lon="2.30808">
        <ele>73.2</ele>
        <time>2022-06-01T13:27:23Z</time>
      </trkpt>
      <trkpt lat="50.11242" lon="2.30799">
        <ele>75.12</ele>
        <time>2022-06-01T13:27:35Z</time>
      </trkpt>
      <trkpt lat="50.11228" lon="2.30792">
        <ele>78.48</ele>
        <time>2022-06-01T13:27:48Z</time>
      </trkpt>
      <trkpt lat="50.11225" lon="2.30785">
        <ele>80.89</ele>
        <time>2022-06-01T13:27:54Z</time>
      </trkpt>
      <trkpt lat="50.11221" lon="2.30776">
        <ele>81.85</ele>
        <time>2022-06-01T13:27:58Z</time>
      </trkpt>
      <trkpt lat="50.11207" lon="2.30755">
        <ele>83.29</ele>
        <time>2022-06-01T13:28:10Z</time>
      </trkpt>
      <trkpt lat="50.11192" lon="2.30734">
        <ele>86.18</ele>
        <time>2022-06-01T13:28:24Z</time>
      </trkpt>
      <trkpt lat="50.11178" lon="2.30713">
        <ele>88.1</ele>
        <time>2022-06-01T13:28:39Z</time>
      </trkpt>
      <trkpt lat="50.11165" lon="2.30692">
        <ele>90.02</ele>
        <time>2022-06-01T13:28:53Z</time>
      </trkpt>
      <trkpt lat="50.11155" lon="2.30675">
        <ele>90.98</ele>
        <time>2022-06-01T13:29:06Z</time>
      </trkpt>
      <trkpt lat="50.11143" lon="2.30657">
        <ele>91.46</ele>
        <time>2022-06-01T13:29:20Z</time>
      </trkpt>
      <trkpt lat="50.11131" lon="2.3064">
        <ele>92.42</ele>
        <time>2022-06-01T13:29:34Z</time>
      </trkpt>
      <trkpt lat="50.11121" lon="2.30624">
        <ele>93.87</ele>
        <time>2022-06-01T13:29:47Z</time>
      </trkpt>
      <trkpt lat="50.11111" lon="2.30608">
        <ele>94.83</ele>
        <time>2022-06-01T13:30:01Z</time>
      </trkpt>
      <trkpt lat="50.11101" lon="2.30594">
        <ele>96.27</ele>
        <time>2022-06-01T13:30:13Z</time>
      </trkpt>
      <trkpt lat="50.11089" lon="2.30576">
        <ele>98.67</ele>
        <time>2022-06-01T13:30:27Z</time>
      </trkpt>
      <trkpt lat="50.11079" lon="2.30561">
        <ele>100.6</ele>
        <time>2022-06-01T13:30:39Z</time>
      </trkpt>
      <trkpt lat="50.1107" lon="2.30547">
        <ele>103.96</ele>
        <time>2022-06-01T13:30:51Z</time>
      </trkpt>
      <trkpt lat="50.11062" lon="2.30535">
        <ele>104.92</ele>
        <time>2022-06-01T13:31:01Z</time>
      </trkpt>
      <trkpt lat="50.11051" lon="2.30519">
        <ele>106.84</ele>
        <time>2022-06-01T13:31:14Z</time>
      </trkpt>
      <trkpt lat="50.11038" lon="2.30501">
        <ele>107.81</ele>
        <time>2022-06-01T13:31:28Z</time>
      </trkpt>
      <trkpt lat="50.11027" lon="2.30483">
        <ele>108.29</ele>
        <time>2022-06-01T13:31:41Z</time>
      </trkpt>
      <trkpt lat="50.11012" lon="2.30461">
        <ele>108.77</ele>
        <time>2022-06-01T13:31:57Z</time>
      </trkpt>
      <trkpt lat="50.10999" lon="2.30444">
        <ele>109.25</ele>
        <time>2022-06-01T13:32:12Z</time>
      </trkpt>
      <trkpt lat="50.10988" lon="2.30431">
        <ele>110.21</ele>
        <time>2022-06-01T13:32:25Z</time>
      </trkpt>
      <trkpt lat="50.10978" lon="2.30419">
        <ele>110.21</ele>
        <time>2022-06-01T13:32:36Z</time>
      </trkpt>
      <trkpt lat="50.10967" lon="2.30408">
        <ele>111.17</ele>
        <time>2022-06-01T13:32:47Z</time>
      </trkpt>
      <trkpt lat="50.10955" lon="2.30395">
        <ele>112.13</ele>
        <time>2022-06-01T13:33:00Z</time>
      </trkpt>
      <trkpt lat="50.10945" lon="2.30386">
        <ele>113.09</ele>
        <time>2022-06-01T13:33:10Z</time>
      </trkpt>
      <trkpt lat="50.10941" lon="2.30379">
        <ele>113.57</ele>
        <time>2022-06-01T13:33:15Z</time>
      </trkpt>
      <trkpt lat="50.10933" lon="2.30369">
        <ele>115.5</ele>
        <time>2022-06-01T13:33:23Z</time>
      </trkpt>
      <trkpt lat="50.10919" lon="2.30355">
        <ele>117.42</ele>
        <time>2022-06-01T13:33:37Z</time>
      </trkpt>
      <trkpt lat="50.10905" lon="2.30339">
        <ele>118.38</ele>
        <time>2022-06-01T13:33:52Z</time>
      </trkpt>
      <trkpt lat="50.10893" lon="2.30326">
        <ele>118.38</ele>
        <time>2022-06-01T13:34:03Z</time>
      </trkpt>
      <trkpt lat="50.1088" lon="2.3031">
        <ele>118.38</ele>
        <time>2022-06-01T13:34:17Z</time>
      </trkpt>
      <trkpt lat="50.10868" lon="2.30294">
        <ele>118.86</ele>
        <time>2022-06-01T13:34:30Z</time>
      </trkpt>
      <trkpt lat="50.10855" lon="2.30281">
        <ele>119.82</ele>
        <time>2022-06-01T13:34:43Z</time>
      </trkpt>
      <trkpt lat="50.10841" lon="2.30264">
        <ele>119.34</ele>
        <time>2022-06-01T13:34:58Z</time>
      </trkpt>
      <trkpt lat="50.10825" lon="2.30243">
        <ele>119.34</ele>
        <time>2022-06-01T13:35:15Z</time>
      </trkpt>
      <trkpt lat="50.10811" lon="2.30228">
        <ele>120.78</ele>
        <time>2022-06-01T13:35:29Z</time>
      </trkpt>
      <trkpt lat="50.10794" lon="2.30211">
        <ele>120.3</ele>
        <time>2022-06-01T13:35:45Z</time>
      </trkpt>
      <trkpt lat="50.1078" lon="2.30196">
        <ele>120.78</ele>
        <time>2022-06-01T13:35:59Z</time>
      </trkpt>
      <trkpt lat="50.10768" lon="2.30185">
        <ele>120.78</ele>
        <time>2022-06-01T13:36:10Z</time>
      </trkpt>
      <trkpt lat="50.10756" lon="2.30171">
        <ele>121.26</ele>
        <time>2022-06-01T13:36:22Z</time>
      </trkpt>
      <trkpt lat="50.10741" lon="2.30157">
        <ele>121.26</ele>
        <time>2022-06-01T13:36:36Z</time>
      </trkpt>
      <trkpt lat="50.10729" lon="2.30147">
        <ele>122.22</ele>
        <time>2022-06-01T13:36:47Z</time>
      </trkpt>
      <trkpt lat="50.10716" lon="2.30135">
        <ele>123.19</ele>
        <time>2022-06-01T13:36:59Z</time>
      </trkpt>
      <trkpt lat="50.10703" lon="2.30122">
        <ele>124.15</ele>
        <time>2022-06-01T13:37:11Z</time>
      </trkpt>
      <trkpt lat="50.1069" lon="2.3011">
        <ele>124.63</ele>
        <time>2022-06-01T13:37:24Z</time>
      </trkpt>
      <trkpt lat="50.10675" lon="2.30096">
        <ele>124.15</ele>
        <time>2022-06-01T13:37:38Z</time>
      </trkpt>
      <trkpt lat="50.10657" lon="2.30081">
        <ele>124.63</ele>
        <time>2022-06-01T13:37:53Z</time>
      </trkpt>
      <trkpt lat="50.10641" lon="2.30069">
        <ele>125.59</ele>
        <time>2022-06-01T13:38:06Z</time>
      </trkpt>
      <trkpt lat="50.10626" lon="2.30055">
        <ele>125.11</ele>
        <time>2022-06-01T13:38:20Z</time>
      </trkpt>
      <trkpt lat="50.10609" lon="2.30041">
        <ele>124.63</ele>
        <time>2022-06-01T13:38:35Z</time>
      </trkpt>
      <trkpt lat="50.10591" lon="2.30029">
        <ele>125.59</ele>
        <time>2022-06-01T13:38:49Z</time>
      </trkpt>
      <trkpt lat="50.10572" lon="2.30017">
        <ele>127.51</ele>
        <time>2022-06-01T13:39:04Z</time>
      </trkpt>
      <trkpt lat="50.10556" lon="2.30005">
        <ele>127.03</ele>
        <time>2022-06-01T13:39:17Z</time>
      </trkpt>
      <trkpt lat="50.10535" lon="2.2999">
        <ele>127.03</ele>
        <time>2022-06-01T13:39:34Z</time>
      </trkpt>
      <trkpt lat="50.10517" lon="2.29977">
        <ele>127.51</ele>
        <time>2022-06-01T13:39:49Z</time>
      </trkpt>
      <trkpt lat="50.10501" lon="2.29962">
        <ele>127.51</ele>
        <time>2022-06-01T13:40:03Z</time>
      </trkpt>
      <trkpt lat="50.10485" lon="2.29949">
        <ele>128.47</ele>
        <time>2022-06-01T13:40:17Z</time>
      </trkpt>
      <trkpt lat="50.10469" lon="2.29935">
        <ele>128.47</ele>
        <time>2022-06-01T13:40:31Z</time>
      </trkpt>
      <trkpt lat="50.10453" lon="2.2992">
        <ele>128.95</ele>
        <time>2022-06-01T13:40:45Z</time>
      </trkpt>
      <trkpt lat="50.10435" lon="2.29905">
        <ele>129.43</ele>
        <time>2022-06-01T13:41:00Z</time>
      </trkpt>
      <trkpt lat="50.10422" lon="2.29893">
        <ele>129.92</ele>
        <time>2022-06-01T13:41:11Z</time>
      </trkpt>
      <trkpt lat="50.10405" lon="2.29878">
        <ele>130.4</ele>
        <time>2022-06-01T13:41:25Z</time>
      </trkpt>
      <trkpt lat="50.10387" lon="2.29862">
        <ele>131.36</ele>
        <time>2022-06-01T13:41:40Z</time>
      </trkpt>
      <trkpt lat="50.10369" lon="2.29845">
        <ele>132.32</ele>
        <time>2022-06-01T13:41:55Z</time>
      </trkpt>
      <trkpt lat="50.1035" lon="2.29827">
        <ele>133.76</ele>
        <time>2022-06-01T13:42:12Z</time>
      </trkpt>
      <trkpt lat="50.10328" lon="2.29807">
        <ele>133.76</ele>
        <time>2022-06-01T13:42:30Z</time>
      </trkpt>
      <trkpt lat="50.10305" lon="2.29786">
        <ele>133.76</ele>
        <time>2022-06-01T13:42:49Z</time>
      </trkpt>
      <trkpt lat="50.10285" lon="2.29768">
        <ele>135.2</ele>
        <time>2022-06-01T13:43:07Z</time>
      </trkpt>
      <trkpt lat="50.10264" lon="2.29749">
        <ele>135.68</ele>
        <time>2022-06-01T13:43:25Z</time>
      </trkpt>
      <trkpt lat="50.10246" lon="2.29732">
        <ele>135.2</ele>
        <time>2022-06-01T13:43:41Z</time>
      </trkpt>
      <trkpt lat="50.1023" lon="2.29718">
        <ele>135.2</ele>
        <time>2022-06-01T13:43:55Z</time>
      </trkpt>
      <trkpt lat="50.10215" lon="2.29705">
        <ele>134.24</ele>
        <time>2022-06-01T13:44:09Z</time>
      </trkpt>
      <trkpt lat="50.10199" lon="2.2969">
        <ele>134.24</ele>
        <time>2022-06-01T13:44:23Z</time>
      </trkpt>
      <trkpt lat="50.10183" lon="2.29675">
        <ele>134.72</ele>
        <time>2022-06-01T13:44:38Z</time>
      </trkpt>
      <trkpt lat="50.10161" lon="2.29655">
        <ele>136.16</ele>
        <time>2022-06-01T13:44:57Z</time>
      </trkpt>
      <trkpt lat="50.10144" lon="2.29641">
        <ele>136.16</ele>
        <time>2022-06-01T13:45:12Z</time>
      </trkpt>
      <trkpt lat="50.10142" lon="2.29631">
        <ele>136.64</ele>
        <time>2022-06-01T13:45:23Z</time>
      </trkpt>
      <trkpt lat="50.10146" lon="2.29627">
        <ele>137.13</ele>
        <time>2022-06-01T13:45:28Z</time>
      </trkpt>
      <trkpt lat="50.10155" lon="2.29607">
        <ele>136.64</ele>
        <time>2022-06-01T13:45:41Z</time>
      </trkpt>
      <trkpt lat="50.10164" lon="2.29588">
        <ele>136.64</ele>
        <time>2022-06-01T13:45:54Z</time>
      </trkpt>
      <trkpt lat="50.10172" lon="2.29573">
        <ele>137.13</ele>
        <time>2022-06-01T13:46:05Z</time>
      </trkpt>
      <trkpt lat="50.10179" lon="2.29558">
        <ele>137.61</ele>
        <time>2022-06-01T13:46:15Z</time>
      </trkpt>
      <trkpt lat="50.10188" lon="2.2954">
        <ele>137.61</ele>
        <time>2022-06-01T13:46:28Z</time>
      </trkpt>
      <trkpt lat="50.10197" lon="2.2952">
        <ele>138.09</ele>
        <time>2022-06-01T13:46:41Z</time>
      </trkpt>
      <trkpt lat="50.10208" lon="2.29499">
        <ele>138.09</ele>
        <time>2022-06-01T13:46:55Z</time>
      </trkpt>
      <trkpt lat="50.10217" lon="2.2948">
        <ele>139.05</ele>
        <time>2022-06-01T13:47:08Z</time>
      </trkpt>
      <trkpt lat="50.10226" lon="2.29463">
        <ele>139.05</ele>
        <time>2022-06-01T13:47:20Z</time>
      </trkpt>
      <trkpt lat="50.10234" lon="2.29444">
        <ele>140.01</ele>
        <time>2022-06-01T13:47:32Z</time>
      </trkpt>
      <trkpt lat="50.10244" lon="2.29425">
        <ele>140.01</ele>
        <time>2022-06-01T13:47:45Z</time>
      </trkpt>
      <trkpt lat="50.10253" lon="2.29407">
        <ele>139.53</ele>
        <time>2022-06-01T13:47:57Z</time>
      </trkpt>
      <trkpt lat="50.10262" lon="2.2939">
        <ele>139.53</ele>
        <time>2022-06-01T13:48:08Z</time>
      </trkpt>
      <trkpt lat="50.10273" lon="2.29366">
        <ele>139.05</ele>
        <time>2022-06-01T13:48:24Z</time>
      </trkpt>
      <trkpt lat="50.10283" lon="2.29348">
        <ele>138.57</ele>
        <time>2022-06-01T13:48:36Z</time>
      </trkpt>
      <trkpt lat="50.10293" lon="2.29327">
        <ele>137.13</ele>
        <time>2022-06-01T13:48:50Z</time>
      </trkpt>
      <trkpt lat="50.10296" lon="2.2932">
        <ele>136.64</ele>
        <time>2022-06-01T13:48:57Z</time>
      </trkpt>
      <trkpt lat="50.10296" lon="2.29317">
        <ele>136.64</ele>
        <time>2022-06-01T13:48:59Z</time>
      </trkpt>
      <trkpt lat="50.10291" lon="2.29311">
        <ele>136.64</ele>
        <time>2022-06-01T13:49:04Z</time>
      </trkpt>
      <trkpt lat="50.10277" lon="2.29299">
        <ele>138.09</ele>
        <time>2022-06-01T13:49:19Z</time>
      </trkpt>
      <trkpt lat="50.1027" lon="2.29292">
        <ele>138.57</ele>
        <time>2022-06-01T13:49:26Z</time>
      </trkpt>
      <trkpt lat="50.10257" lon="2.29273">
        <ele>138.57</ele>
        <time>2022-06-01T13:49:40Z</time>
      </trkpt>
      <trkpt lat="50.10244" lon="2.29251">
        <ele>137.61</ele>
        <time>2022-06-01T13:49:55Z</time>
      </trkpt>
      <trkpt lat="50.10234" lon="2.29232">
        <ele>137.13</ele>
        <time>2022-06-01T13:50:08Z</time>
      </trkpt>
      <trkpt lat="50.10223" lon="2.29211">
        <ele>135.68</ele>
        <time>2022-06-01T13:50:22Z</time>
      </trkpt>
      <trkpt lat="50.10212" lon="2.29193">
        <ele>134.72</ele>
        <time>2022-06-01T13:50:35Z</time>
      </trkpt>
      <trkpt lat="50.10201" lon="2.29177">
        <ele>135.2</ele>
        <time>2022-06-01T13:50:47Z</time>
      </trkpt>
      <trkpt lat="50.10192" lon="2.29157">
        <ele>132.32</ele>
        <time>2022-06-01T13:50:59Z</time>
      </trkpt>
      <trkpt lat="50.10181" lon="2.29135">
        <ele>129.92</ele>
        <time>2022-06-01T13:51:13Z</time>
      </trkpt>
      <trkpt lat="50.10171" lon="2.29116">
        <ele>127.51</ele>
        <time>2022-06-01T13:51:26Z</time>
      </trkpt>
      <trkpt lat="50.1016" lon="2.291">
        <ele>127.99</ele>
        <time>2022-06-01T13:51:38Z</time>
      </trkpt>
      <trkpt lat="50.10145" lon="2.29087">
        <ele>129.92</ele>
        <time>2022-06-01T13:51:51Z</time>
      </trkpt>
      <trkpt lat="50.1013" lon="2.29074">
        <ele>132.32</ele>
        <time>2022-06-01T13:52:04Z</time>
      </trkpt>
      <trkpt lat="50.10115" lon="2.2906">
        <ele>134.24</ele>
        <time>2022-06-01T13:52:17Z</time>
      </trkpt>
      <trkpt lat="50.101" lon="2.29048">
        <ele>132.8</ele>
        <time>2022-06-01T13:52:29Z</time>
      </trkpt>
      <trkpt lat="50.10085" lon="2.29036">
        <ele>132.8</ele>
        <time>2022-06-01T13:52:42Z</time>
      </trkpt>
      <trkpt lat="50.10071" lon="2.29026">
        <ele>133.76</ele>
        <time>2022-06-01T13:52:53Z</time>
      </trkpt>
      <trkpt lat="50.10056" lon="2.29013">
        <ele>133.76</ele>
        <time>2022-06-01T13:53:06Z</time>
      </trkpt>
      <trkpt lat="50.10041" lon="2.28999">
        <ele>134.24</ele>
        <time>2022-06-01T13:53:20Z</time>
      </trkpt>
      <trkpt lat="50.10026" lon="2.28983">
        <ele>132.8</ele>
        <time>2022-06-01T13:53:34Z</time>
      </trkpt>
      <trkpt lat="50.10008" lon="2.28966">
        <ele>133.28</ele>
        <time>2022-06-01T13:53:50Z</time>
      </trkpt>
      <trkpt lat="50.09993" lon="2.28953">
        <ele>134.24</ele>
        <time>2022-06-01T13:54:04Z</time>
      </trkpt>
      <trkpt lat="50.09974" lon="2.28935">
        <ele>135.68</ele>
        <time>2022-06-01T13:54:21Z</time>
      </trkpt>
      <trkpt lat="50.09957" lon="2.28918">
        <ele>135.68</ele>
        <time>2022-06-01T13:54:36Z</time>
      </trkpt>
      <trkpt lat="50.09955" lon="2.28894">
        <ele>135.68</ele>
        <time>2022-06-01T13:54:50Z</time>
      </trkpt>
      <trkpt lat="50.09961" lon="2.28866">
        <ele>135.2</ele>
        <time>2022-06-01T13:55:05Z</time>
      </trkpt>
      <trkpt lat="50.09962" lon="2.28839">
        <ele>135.2</ele>
        <time>2022-06-01T13:55:18Z</time>
      </trkpt>
      <trkpt lat="50.09958" lon="2.28809">
        <ele>135.68</ele>
        <time>2022-06-01T13:55:34Z</time>
      </trkpt>
      <trkpt lat="50.09955" lon="2.28802">
        <ele>135.68</ele>
        <time>2022-06-01T13:55:45Z</time>
      </trkpt>
      <trkpt lat="50.09956" lon="2.28802">
        <ele>135.68</ele>
        <time>2022-06-01T13:55:59Z</time>
      </trkpt>
      <trkpt lat="50.09956" lon="2.28802">
        <ele>134.72</ele>
        <time>2022-06-01T13:56:18Z</time>
      </trkpt>
      <trkpt lat="50.09956" lon="2.28802">
        <ele>135.2</ele>
        <time>2022-06-01T13:56:34Z</time>
      </trkpt>
      <trkpt lat="50.09956" lon="2.28802">
        <ele>135.2</ele>
        <time>2022-06-01T13:56:46Z</time>
      </trkpt>
      <trkpt lat="50.09956" lon="2.28802">
        <ele>136.64</ele>
        <time>2022-06-01T13:57:06Z</time>
      </trkpt>
      <trkpt lat="50.09957" lon="2.28802">
        <ele>136.64</ele>
        <time>2022-06-01T13:57:25Z</time>
      </trkpt>
      <trkpt lat="50.09957" lon="2.28802">
        <ele>136.64</ele>
        <time>2022-06-01T13:57:38Z</time>
      </trkpt>
      <trkpt lat="50.09957" lon="2.28802">
        <ele>137.13</ele>
        <time>2022-06-01T13:58:00Z</time>
      </trkpt>
      <trkpt lat="50.09956" lon="2.28794">
        <ele>136.64</ele>
        <time>2022-06-01T13:58:09Z</time>
      </trkpt>
      <trkpt lat="50.09947" lon="2.28769">
        <ele>136.64</ele>
        <time>2022-06-01T13:58:23Z</time>
      </trkpt>
      <trkpt lat="50.09937" lon="2.28736">
        <ele>137.13</ele>
        <time>2022-06-01T13:58:41Z</time>
      </trkpt>
      <trkpt lat="50.09929" lon="2.28708">
        <ele>136.16</ele>
        <time>2022-06-01T13:58:56Z</time>
      </trkpt>
      <trkpt lat="50.09924" lon="2.28669">
        <ele>135.2</ele>
        <time>2022-06-01T13:59:15Z</time>
      </trkpt>
      <trkpt lat="50.09925" lon="2.28623">
        <ele>134.24</ele>
        <time>2022-06-01T13:59:36Z</time>
      </trkpt>
      <trkpt lat="50.09929" lon="2.28576">
        <ele>135.2</ele>
        <time>2022-06-01T13:59:58Z</time>
      </trkpt>
      <trkpt lat="50.09932" lon="2.28536">
        <ele>137.61</ele>
        <time>2022-06-01T14:00:18Z</time>
      </trkpt>
      <trkpt lat="50.09937" lon="2.28505">
        <ele>138.09</ele>
        <time>2022-06-01T14:00:34Z</time>
      </trkpt>
      <trkpt lat="50.09942" lon="2.28469">
        <ele>139.53</ele>
        <time>2022-06-01T14:00:52Z</time>
      </trkpt>
      <trkpt lat="50.09947" lon="2.2844">
        <ele>141.93</ele>
        <time>2022-06-01T14:01:08Z</time>
      </trkpt>
      <trkpt lat="50.09954" lon="2.28407">
        <ele>143.37</ele>
        <time>2022-06-01T14:01:25Z</time>
      </trkpt>
      <trkpt lat="50.0996" lon="2.28373">
        <ele>144.34</ele>
        <time>2022-06-01T14:01:42Z</time>
      </trkpt>
      <trkpt lat="50.09966" lon="2.28341">
        <ele>143.85</ele>
        <time>2022-06-01T14:01:58Z</time>
      </trkpt>
      <trkpt lat="50.09971" lon="2.28312">
        <ele>143.85</ele>
        <time>2022-06-01T14:02:12Z</time>
      </trkpt>
      <trkpt lat="50.09978" lon="2.28277">
        <ele>145.3</ele>
        <time>2022-06-01T14:02:30Z</time>
      </trkpt>
      <trkpt lat="50.09984" lon="2.28248">
        <ele>145.78</ele>
        <time>2022-06-01T14:02:45Z</time>
      </trkpt>
      <trkpt lat="50.09987" lon="2.28237">
        <ele>145.78</ele>
        <time>2022-06-01T14:02:51Z</time>
      </trkpt>
      <trkpt lat="50.0998" lon="2.28214">
        <ele>145.3</ele>
        <time>2022-06-01T14:03:05Z</time>
      </trkpt>
      <trkpt lat="50.0997" lon="2.28197">
        <ele>148.66</ele>
        <time>2022-06-01T14:03:18Z</time>
      </trkpt>
      <trkpt lat="50.09958" lon="2.28182">
        <ele>150.1</ele>
        <time>2022-06-01T14:03:31Z</time>
      </trkpt>
      <trkpt lat="50.09944" lon="2.28167">
        <ele>150.58</ele>
        <time>2022-06-01T14:03:44Z</time>
      </trkpt>
      <trkpt lat="50.09926" lon="2.28146">
        <ele>151.54</ele>
        <time>2022-06-01T14:04:01Z</time>
      </trkpt>
      <trkpt lat="50.09907" lon="2.28125">
        <ele>152.51</ele>
        <time>2022-06-01T14:04:18Z</time>
      </trkpt>
      <trkpt lat="50.09889" lon="2.28099">
        <ele>153.47</ele>
        <time>2022-06-01T14:04:36Z</time>
      </trkpt>
      <trkpt lat="50.0987" lon="2.28067">
        <ele>154.43</ele>
        <time>2022-06-01T14:04:56Z</time>
      </trkpt>
      <trkpt lat="50.09855" lon="2.28039">
        <ele>154.91</ele>
        <time>2022-06-01T14:05:13Z</time>
      </trkpt>
      <trkpt lat="50.09839" lon="2.28008">
        <ele>155.39</ele>
        <time>2022-06-01T14:05:32Z</time>
      </trkpt>
      <trkpt lat="50.09823" lon="2.2798">
        <ele>154.91</ele>
        <time>2022-06-01T14:05:50Z</time>
      </trkpt>
      <trkpt lat="50.0981" lon="2.27953">
        <ele>155.39</ele>
        <time>2022-06-01T14:06:07Z</time>
      </trkpt>
      <trkpt lat="50.09795" lon="2.27928">
        <ele>156.83</ele>
        <time>2022-06-01T14:06:24Z</time>
      </trkpt>
      <trkpt lat="50.0978" lon="2.27901">
        <ele>156.83</ele>
        <time>2022-06-01T14:06:41Z</time>
      </trkpt>
      <trkpt lat="50.09766" lon="2.27875">
        <ele>156.83</ele>
        <time>2022-06-01T14:06:57Z</time>
      </trkpt>
      <trkpt lat="50.09748" lon="2.27843">
        <ele>158.75</ele>
        <time>2022-06-01T14:07:17Z</time>
      </trkpt>
      <trkpt lat="50.09736" lon="2.27819">
        <ele>158.75</ele>
        <time>2022-06-01T14:07:32Z</time>
      </trkpt>
      <trkpt lat="50.09721" lon="2.2779">
        <ele>158.27</ele>
        <time>2022-06-01T14:07:50Z</time>
      </trkpt>
      <trkpt lat="50.09705" lon="2.27762">
        <ele>158.27</ele>
        <time>2022-06-01T14:08:08Z</time>
      </trkpt>
      <trkpt lat="50.09689" lon="2.27733">
        <ele>159.72</ele>
        <time>2022-06-01T14:08:26Z</time>
      </trkpt>
      <trkpt lat="50.09676" lon="2.27707">
        <ele>160.2</ele>
        <time>2022-06-01T14:08:42Z</time>
      </trkpt>
      <trkpt lat="50.09664" lon="2.27684">
        <ele>160.2</ele>
        <time>2022-06-01T14:08:57Z</time>
      </trkpt>
      <trkpt lat="50.09648" lon="2.27654">
        <ele>160.2</ele>
        <time>2022-06-01T14:09:15Z</time>
      </trkpt>
      <trkpt lat="50.09633" lon="2.27627">
        <ele>160.2</ele>
        <time>2022-06-01T14:09:32Z</time>
      </trkpt>
      <trkpt lat="50.09618" lon="2.27597">
        <ele>161.16</ele>
        <time>2022-06-01T14:09:50Z</time>
      </trkpt>
      <trkpt lat="50.0961" lon="2.27575">
        <ele>160.68</ele>
        <time>2022-06-01T14:10:02Z</time>
      </trkpt>
      <trkpt lat="50.09626" lon="2.27554">
        <ele>158.75</ele>
        <time>2022-06-01T14:10:17Z</time>
      </trkpt>
      <trkpt lat="50.09647" lon="2.27535">
        <ele>156.83</ele>
        <time>2022-06-01T14:10:34Z</time>
      </trkpt>
      <trkpt lat="50.09669" lon="2.27513">
        <ele>157.79</ele>
        <time>2022-06-01T14:10:54Z</time>
      </trkpt>
      <trkpt lat="50.09688" lon="2.27492">
        <ele>156.35</ele>
        <time>2022-06-01T14:11:11Z</time>
      </trkpt>
      <trkpt lat="50.09708" lon="2.27464">
        <ele>155.39</ele>
        <time>2022-06-01T14:11:31Z</time>
      </trkpt>
      <trkpt lat="50.09729" lon="2.27434">
        <ele>153.95</ele>
        <time>2022-06-01T14:11:51Z</time>
      </trkpt>
      <trkpt lat="50.09744" lon="2.27406">
        <ele>153.95</ele>
        <time>2022-06-01T14:12:09Z</time>
      </trkpt>
      <trkpt lat="50.09764" lon="2.2737">
        <ele>152.51</ele>
        <time>2022-06-01T14:12:31Z</time>
      </trkpt>
      <trkpt lat="50.09782" lon="2.27342">
        <ele>152.03</ele>
        <time>2022-06-01T14:12:50Z</time>
      </trkpt>
      <trkpt lat="50.09798" lon="2.27315">
        <ele>152.03</ele>
        <time>2022-06-01T14:13:07Z</time>
      </trkpt>
      <trkpt lat="50.09813" lon="2.27292">
        <ele>152.03</ele>
        <time>2022-06-01T14:13:23Z</time>
      </trkpt>
      <trkpt lat="50.09829" lon="2.27265">
        <ele>151.54</ele>
        <time>2022-06-01T14:13:41Z</time>
      </trkpt>
      <trkpt lat="50.0985" lon="2.27234">
        <ele>152.03</ele>
        <time>2022-06-01T14:14:02Z</time>
      </trkpt>
      <trkpt lat="50.09869" lon="2.27206">
        <ele>150.1</ele>
        <time>2022-06-01T14:14:20Z</time>
      </trkpt>
      <trkpt lat="50.09886" lon="2.2718">
        <ele>150.1</ele>
        <time>2022-06-01T14:14:37Z</time>
      </trkpt>
      <trkpt lat="50.09904" lon="2.27151">
        <ele>148.18</ele>
        <time>2022-06-01T14:14:54Z</time>
      </trkpt>
      <trkpt lat="50.09925" lon="2.27117">
        <ele>149.14</ele>
        <time>2022-06-01T14:15:15Z</time>
      </trkpt>
      <trkpt lat="50.09946" lon="2.27081">
        <ele>148.18</ele>
        <time>2022-06-01T14:15:36Z</time>
      </trkpt>
      <trkpt lat="50.09964" lon="2.2705">
        <ele>147.7</ele>
        <time>2022-06-01T14:15:54Z</time>
      </trkpt>
      <trkpt lat="50.09979" lon="2.27023">
        <ele>146.26</ele>
        <time>2022-06-01T14:16:11Z</time>
      </trkpt>
      <trkpt lat="50.09993" lon="2.26991">
        <ele>145.78</ele>
        <time>2022-06-01T14:16:30Z</time>
      </trkpt>
      <trkpt lat="50.10005" lon="2.26957">
        <ele>145.3</ele>
        <time>2022-06-01T14:16:48Z</time>
      </trkpt>
      <trkpt lat="50.10016" lon="2.26925">
        <ele>145.3</ele>
        <time>2022-06-01T14:17:06Z</time>
      </trkpt>
      <trkpt lat="50.10027" lon="2.26893">
        <ele>145.3</ele>
        <time>2022-06-01T14:17:23Z</time>
      </trkpt>
      <trkpt lat="50.1004" lon="2.26856">
        <ele>145.78</ele>
        <time>2022-06-01T14:17:42Z</time>
      </trkpt>
      <trkpt lat="50.10053" lon="2.26819">
        <ele>146.26</ele>
        <time>2022-06-01T14:18:03Z</time>
      </trkpt>
      <trkpt lat="50.10066" lon="2.2679">
        <ele>145.3</ele>
        <time>2022-06-01T14:18:20Z</time>
      </trkpt>
      <trkpt lat="50.10066" lon="2.26788">
        <ele>145.3</ele>
        <time>2022-06-01T14:18:21Z</time>
      </trkpt>
      <trkpt lat="50.10063" lon="2.26782">
        <ele>145.78</ele>
        <time>2022-06-01T14:18:25Z</time>
      </trkpt>
      <trkpt lat="50.10042" lon="2.26767">
        <ele>145.78</ele>
        <time>2022-06-01T14:18:42Z</time>
      </trkpt>
      <trkpt lat="50.10023" lon="2.2675">
        <ele>145.78</ele>
        <time>2022-06-01T14:18:58Z</time>
      </trkpt>
      <trkpt lat="50.10002" lon="2.26728">
        <ele>146.26</ele>
        <time>2022-06-01T14:19:16Z</time>
      </trkpt>
      <trkpt lat="50.09985" lon="2.26709">
        <ele>146.74</ele>
        <time>2022-06-01T14:19:32Z</time>
      </trkpt>
      <trkpt lat="50.09964" lon="2.26686">
        <ele>148.18</ele>
        <time>2022-06-01T14:19:52Z</time>
      </trkpt>
      <trkpt lat="50.09942" lon="2.26664">
        <ele>150.58</ele>
        <time>2022-06-01T14:20:12Z</time>
      </trkpt>
      <trkpt lat="50.0992" lon="2.26642">
        <ele>150.58</ele>
        <time>2022-06-01T14:20:30Z</time>
      </trkpt>
      <trkpt lat="50.099" lon="2.26618">
        <ele>150.58</ele>
        <time>2022-06-01T14:20:48Z</time>
      </trkpt>
      <trkpt lat="50.09888" lon="2.26602">
        <ele>151.06</ele>
        <time>2022-06-01T14:21:00Z</time>
      </trkpt>
      <trkpt lat="50.09865" lon="2.26572">
        <ele>152.51</ele>
        <time>2022-06-01T14:21:21Z</time>
      </trkpt>
      <trkpt lat="50.09848" lon="2.26548">
        <ele>151.06</ele>
        <time>2022-06-01T14:21:38Z</time>
      </trkpt>
      <trkpt lat="50.09831" lon="2.26522">
        <ele>150.58</ele>
        <time>2022-06-01T14:21:54Z</time>
      </trkpt>
      <trkpt lat="50.09813" lon="2.26499">
        <ele>150.58</ele>
        <time>2022-06-01T14:22:11Z</time>
      </trkpt>
      <trkpt lat="50.09796" lon="2.26474">
        <ele>149.14</ele>
        <time>2022-06-01T14:22:27Z</time>
      </trkpt>
      <trkpt lat="50.09777" lon="2.2645">
        <ele>149.62</ele>
        <time>2022-06-01T14:22:45Z</time>
      </trkpt>
      <trkpt lat="50.09758" lon="2.26424">
        <ele>149.14</ele>
        <time>2022-06-01T14:23:04Z</time>
      </trkpt>
      <trkpt lat="50.0974" lon="2.26401">
        <ele>149.14</ele>
        <time>2022-06-01T14:23:21Z</time>
      </trkpt>
      <trkpt lat="50.0972" lon="2.26381">
        <ele>148.66</ele>
        <time>2022-06-01T14:23:38Z</time>
      </trkpt>
      <trkpt lat="50.09701" lon="2.26371">
        <ele>149.14</ele>
        <time>2022-06-01T14:23:53Z</time>
      </trkpt>
      <trkpt lat="50.09679" lon="2.26361">
        <ele>149.62</ele>
        <time>2022-06-01T14:24:10Z</time>
      </trkpt>
      <trkpt lat="50.09656" lon="2.26353">
        <ele>149.62</ele>
        <time>2022-06-01T14:24:27Z</time>
      </trkpt>
      <trkpt lat="50.09633" lon="2.26348">
        <ele>150.1</ele>
        <time>2022-06-01T14:24:44Z</time>
      </trkpt>
      <trkpt lat="50.09612" lon="2.26344">
        <ele>150.58</ele>
        <time>2022-06-01T14:25:00Z</time>
      </trkpt>
      <trkpt lat="50.09592" lon="2.26341">
        <ele>150.58</ele>
        <time>2022-06-01T14:25:14Z</time>
      </trkpt>
      <trkpt lat="50.09574" lon="2.26339">
        <ele>149.14</ele>
        <time>2022-06-01T14:25:28Z</time>
      </trkpt>
      <trkpt lat="50.09552" lon="2.26338">
        <ele>149.14</ele>
        <time>2022-06-01T14:25:44Z</time>
      </trkpt>
      <trkpt lat="50.09527" lon="2.26335">
        <ele>149.14</ele>
        <time>2022-06-01T14:26:03Z</time>
      </trkpt>
      <trkpt lat="50.09504" lon="2.26333">
        <ele>148.18</ele>
        <time>2022-06-01T14:26:20Z</time>
      </trkpt>
      <trkpt lat="50.09483" lon="2.26331">
        <ele>147.7</ele>
        <time>2022-06-01T14:26:36Z</time>
      </trkpt>
      <trkpt lat="50.09461" lon="2.26329">
        <ele>147.22</ele>
        <time>2022-06-01T14:26:52Z</time>
      </trkpt>
      <trkpt lat="50.09438" lon="2.26329">
        <ele>146.74</ele>
        <time>2022-06-01T14:27:08Z</time>
      </trkpt>
      <trkpt lat="50.09419" lon="2.26327">
        <ele>145.78</ele>
        <time>2022-06-01T14:27:23Z</time>
      </trkpt>
      <trkpt lat="50.09402" lon="2.26327">
        <ele>144.34</ele>
        <time>2022-06-01T14:27:36Z</time>
      </trkpt>
      <trkpt lat="50.09384" lon="2.2632">
        <ele>141.93</ele>
        <time>2022-06-01T14:27:51Z</time>
      </trkpt>
      <trkpt lat="50.09371" lon="2.26299">
        <ele>140.49</ele>
        <time>2022-06-01T14:28:05Z</time>
      </trkpt>
      <trkpt lat="50.09362" lon="2.26284">
        <ele>141.45</ele>
        <time>2022-06-01T14:28:18Z</time>
      </trkpt>
      <trkpt lat="50.0936" lon="2.26283">
        <ele>141.45</ele>
        <time>2022-06-01T14:28:29Z</time>
      </trkpt>
      <trkpt lat="50.09361" lon="2.2628">
        <ele>140.01</ele>
        <time>2022-06-01T14:28:47Z</time>
      </trkpt>
      <trkpt lat="50.0936" lon="2.2628">
        <ele>140.01</ele>
        <time>2022-06-01T14:29:01Z</time>
      </trkpt>
      <trkpt lat="50.0936" lon="2.2628">
        <ele>140.49</ele>
        <time>2022-06-01T14:29:27Z</time>
      </trkpt>
      <trkpt lat="50.0936" lon="2.2628">
        <ele>140.49</ele>
        <time>2022-06-01T14:29:52Z</time>
      </trkpt>
      <trkpt lat="50.09359" lon="2.26276">
        <ele>140.49</ele>
        <time>2022-06-01T14:30:07Z</time>
      </trkpt>
      <trkpt lat="50.09359" lon="2.26259">
        <ele>140.01</ele>
        <time>2022-06-01T14:30:19Z</time>
      </trkpt>
      <trkpt lat="50.09362" lon="2.26242">
        <ele>137.61</ele>
        <time>2022-06-01T14:30:32Z</time>
      </trkpt>
      <trkpt lat="50.09368" lon="2.26226">
        <ele>133.76</ele>
        <time>2022-06-01T14:30:46Z</time>
      </trkpt>
      <trkpt lat="50.0937" lon="2.26204">
        <ele>132.8</ele>
        <time>2022-06-01T14:30:59Z</time>
      </trkpt>
      <trkpt lat="50.09372" lon="2.2618">
        <ele>133.28</ele>
        <time>2022-06-01T14:31:14Z</time>
      </trkpt>
      <trkpt lat="50.09379" lon="2.26161">
        <ele>130.88</ele>
        <time>2022-06-01T14:31:29Z</time>
      </trkpt>
      <trkpt lat="50.09384" lon="2.26136">
        <ele>127.51</ele>
        <time>2022-06-01T14:31:45Z</time>
      </trkpt>
      <trkpt lat="50.09388" lon="2.26127">
        <ele>126.07</ele>
        <time>2022-06-01T14:31:50Z</time>
      </trkpt>
      <trkpt lat="50.09399" lon="2.26097">
        <ele>123.67</ele>
        <time>2022-06-01T14:32:05Z</time>
      </trkpt>
      <trkpt lat="50.09407" lon="2.26079">
        <ele>121.26</ele>
        <time>2022-06-01T14:32:20Z</time>
      </trkpt>
      <trkpt lat="50.09413" lon="2.2606">
        <ele>120.3</ele>
        <time>2022-06-01T14:32:32Z</time>
      </trkpt>
      <trkpt lat="50.09417" lon="2.26041">
        <ele>119.34</ele>
        <time>2022-06-01T14:32:42Z</time>
      </trkpt>
      <trkpt lat="50.09422" lon="2.26016">
        <ele>122.71</ele>
        <time>2022-06-01T14:32:56Z</time>
      </trkpt>
      <trkpt lat="50.09434" lon="2.26002">
        <ele>119.82</ele>
        <time>2022-06-01T14:33:10Z</time>
      </trkpt>
      <trkpt lat="50.09445" lon="2.2599">
        <ele>119.82</ele>
        <time>2022-06-01T14:33:22Z</time>
      </trkpt>
      <trkpt lat="50.09457" lon="2.25972">
        <ele>119.34</ele>
        <time>2022-06-01T14:33:36Z</time>
      </trkpt>
      <trkpt lat="50.09461" lon="2.25961">
        <ele>118.38</ele>
        <time>2022-06-01T14:33:44Z</time>
      </trkpt>
      <trkpt lat="50.09457" lon="2.2594">
        <ele>119.34</ele>
        <time>2022-06-01T14:33:57Z</time>
      </trkpt>
      <trkpt lat="50.09458" lon="2.25939">
        <ele>119.34</ele>
        <time>2022-06-01T14:33:59Z</time>
      </trkpt>
      <trkpt lat="50.09462" lon="2.25927">
        <ele>119.82</ele>
        <time>2022-06-01T14:34:10Z</time>
      </trkpt>
      <trkpt lat="50.09461" lon="2.25908">
        <ele>121.26</ele>
        <time>2022-06-01T14:34:22Z</time>
      </trkpt>
      <trkpt lat="50.09464" lon="2.2589">
        <ele>123.19</ele>
        <time>2022-06-01T14:34:36Z</time>
      </trkpt>
      <trkpt lat="50.09473" lon="2.25881">
        <ele>125.59</ele>
        <time>2022-06-01T14:34:49Z</time>
      </trkpt>
      <trkpt lat="50.0948" lon="2.25887">
        <ele>125.59</ele>
        <time>2022-06-01T14:35:01Z</time>
      </trkpt>
      <trkpt lat="50.09488" lon="2.25895">
        <ele>126.07</ele>
        <time>2022-06-01T14:35:15Z</time>
      </trkpt>
      <trkpt lat="50.09495" lon="2.25901">
        <ele>127.99</ele>
        <time>2022-06-01T14:35:25Z</time>
      </trkpt>
      <trkpt lat="50.09503" lon="2.2591">
        <ele>129.43</ele>
        <time>2022-06-01T14:35:35Z</time>
      </trkpt>
      <trkpt lat="50.09508" lon="2.25908">
        <ele>131.84</ele>
        <time>2022-06-01T14:35:47Z</time>
      </trkpt>
      <trkpt lat="50.09518" lon="2.25899">
        <ele>132.8</ele>
        <time>2022-06-01T14:35:58Z</time>
      </trkpt>
      <trkpt lat="50.09532" lon="2.25888">
        <ele>132.8</ele>
        <time>2022-06-01T14:36:11Z</time>
      </trkpt>
      <trkpt lat="50.09541" lon="2.25873">
        <ele>132.32</ele>
        <time>2022-06-01T14:36:24Z</time>
      </trkpt>
      <trkpt lat="50.09557" lon="2.25862">
        <ele>132.32</ele>
        <time>2022-06-01T14:36:39Z</time>
      </trkpt>
      <trkpt lat="50.09561" lon="2.25859">
        <ele>132.8</ele>
        <time>2022-06-01T14:36:43Z</time>
      </trkpt>
      <trkpt lat="50.09563" lon="2.25857">
        <ele>133.28</ele>
        <time>2022-06-01T14:36:45Z</time>
      </trkpt>
      <trkpt lat="50.09578" lon="2.25845">
        <ele>135.2</ele>
        <time>2022-06-01T14:36:59Z</time>
      </trkpt>
      <trkpt lat="50.09588" lon="2.25836">
        <ele>135.68</ele>
        <time>2022-06-01T14:37:10Z</time>
      </trkpt>
      <trkpt lat="50.09602" lon="2.25831">
        <ele>135.68</ele>
        <time>2022-06-01T14:37:22Z</time>
      </trkpt>
      <trkpt lat="50.0961" lon="2.25833">
        <ele>136.16</ele>
        <time>2022-06-01T14:37:33Z</time>
      </trkpt>
      <trkpt lat="50.09607" lon="2.25827">
        <ele>137.13</ele>
        <time>2022-06-01T14:37:45Z</time>
      </trkpt>
      <trkpt lat="50.09602" lon="2.25821">
        <ele>137.13</ele>
        <time>2022-06-01T14:37:54Z</time>
      </trkpt>
      <trkpt lat="50.09593" lon="2.25812">
        <ele>138.09</ele>
        <time>2022-06-01T14:38:07Z</time>
      </trkpt>
      <trkpt lat="50.09587" lon="2.25804">
        <ele>138.09</ele>
        <time>2022-06-01T14:38:19Z</time>
      </trkpt>
      <trkpt lat="50.09578" lon="2.25793">
        <ele>137.61</ele>
        <time>2022-06-01T14:38:32Z</time>
      </trkpt>
      <trkpt lat="50.09568" lon="2.2578">
        <ele>138.57</ele>
        <time>2022-06-01T14:38:45Z</time>
      </trkpt>
      <trkpt lat="50.0956" lon="2.2577">
        <ele>137.13</ele>
        <time>2022-06-01T14:38:58Z</time>
      </trkpt>
      <trkpt lat="50.09552" lon="2.25758">
        <ele>136.64</ele>
        <time>2022-06-01T14:39:11Z</time>
      </trkpt>
      <trkpt lat="50.09553" lon="2.25746">
        <ele>135.2</ele>
        <time>2022-06-01T14:39:18Z</time>
      </trkpt>
      <trkpt lat="50.09562" lon="2.25722">
        <ele>132.32</ele>
        <time>2022-06-01T14:39:32Z</time>
      </trkpt>
      <trkpt lat="50.09571" lon="2.25701">
        <ele>131.36</ele>
        <time>2022-06-01T14:39:45Z</time>
      </trkpt>
      <trkpt lat="50.09578" lon="2.25682">
        <ele>129.92</ele>
        <time>2022-06-01T14:39:57Z</time>
      </trkpt>
      <trkpt lat="50.09585" lon="2.25663">
        <ele>128.47</ele>
        <time>2022-06-01T14:40:10Z</time>
      </trkpt>
      <trkpt lat="50.09594" lon="2.2564">
        <ele>126.55</ele>
        <time>2022-06-01T14:40:25Z</time>
      </trkpt>
      <trkpt lat="50.09601" lon="2.25627">
        <ele>124.63</ele>
        <time>2022-06-01T14:40:37Z</time>
      </trkpt>
      <trkpt lat="50.09605" lon="2.25614">
        <ele>122.71</ele>
        <time>2022-06-01T14:40:49Z</time>
      </trkpt>
      <trkpt lat="50.09609" lon="2.25603">
        <ele>121.74</ele>
        <time>2022-06-01T14:41:01Z</time>
      </trkpt>
      <trkpt lat="50.09606" lon="2.25592">
        <ele>119.34</ele>
        <time>2022-06-01T14:41:13Z</time>
      </trkpt>
      <trkpt lat="50.09605" lon="2.25579">
        <ele>118.86</ele>
        <time>2022-06-01T14:41:26Z</time>
      </trkpt>
      <trkpt lat="50.09606" lon="2.25566">
        <ele>118.86</ele>
        <time>2022-06-01T14:41:39Z</time>
      </trkpt>
      <trkpt lat="50.09604" lon="2.25551">
        <ele>117.9</ele>
        <time>2022-06-01T14:41:52Z</time>
      </trkpt>
      <trkpt lat="50.09605" lon="2.25533">
        <ele>116.46</ele>
        <time>2022-06-01T14:42:05Z</time>
      </trkpt>
      <trkpt lat="50.0961" lon="2.25524">
        <ele>114.53</ele>
        <time>2022-06-01T14:42:13Z</time>
      </trkpt>
      <trkpt lat="50.09622" lon="2.25529">
        <ele>115.98</ele>
        <time>2022-06-01T14:42:24Z</time>
      </trkpt>
      <trkpt lat="50.09633" lon="2.2553">
        <ele>116.46</ele>
        <time>2022-06-01T14:42:36Z</time>
      </trkpt>
      <trkpt lat="50.09643" lon="2.25522">
        <ele>115.98</ele>
        <time>2022-06-01T14:42:47Z</time>
      </trkpt>
      <trkpt lat="50.09655" lon="2.25514">
        <ele>114.53</ele>
        <time>2022-06-01T14:43:01Z</time>
      </trkpt>
      <trkpt lat="50.09669" lon="2.25521">
        <ele>114.53</ele>
        <time>2022-06-01T14:43:13Z</time>
      </trkpt>
      <trkpt lat="50.0967" lon="2.25524">
        <ele>114.53</ele>
        <time>2022-06-01T14:43:15Z</time>
      </trkpt>
      <trkpt lat="50.09679" lon="2.25536">
        <ele>115.98</ele>
        <time>2022-06-01T14:43:25Z</time>
      </trkpt>
      <trkpt lat="50.09687" lon="2.25549">
        <ele>118.86</ele>
        <time>2022-06-01T14:43:34Z</time>
      </trkpt>
      <trkpt lat="50.09693" lon="2.25571">
        <ele>121.74</ele>
        <time>2022-06-01T14:43:46Z</time>
      </trkpt>
      <trkpt lat="50.09697" lon="2.25591">
        <ele>123.19</ele>
        <time>2022-06-01T14:43:58Z</time>
      </trkpt>
      <trkpt lat="50.09704" lon="2.25612">
        <ele>121.74</ele>
        <time>2022-06-01T14:44:12Z</time>
      </trkpt>
      <trkpt lat="50.09705" lon="2.25633">
        <ele>120.3</ele>
        <time>2022-06-01T14:44:25Z</time>
      </trkpt>
      <trkpt lat="50.0971" lon="2.25649">
        <ele>120.78</ele>
        <time>2022-06-01T14:44:39Z</time>
      </trkpt>
      <trkpt lat="50.09714" lon="2.25653">
        <ele>120.3</ele>
        <time>2022-06-01T14:44:44Z</time>
      </trkpt>
      <trkpt lat="50.09727" lon="2.25669">
        <ele>119.82</ele>
        <time>2022-06-01T14:45:00Z</time>
      </trkpt>
      <trkpt lat="50.09737" lon="2.25676">
        <ele>118.38</ele>
        <time>2022-06-01T14:45:09Z</time>
      </trkpt>
      <trkpt lat="50.0975" lon="2.25689">
        <ele>117.9</ele>
        <time>2022-06-01T14:45:21Z</time>
      </trkpt>
      <trkpt lat="50.09762" lon="2.25708">
        <ele>116.46</ele>
        <time>2022-06-01T14:45:36Z</time>
      </trkpt>
      <trkpt lat="50.09773" lon="2.25727">
        <ele>115.98</ele>
        <time>2022-06-01T14:45:51Z</time>
      </trkpt>
      <trkpt lat="50.09777" lon="2.25732">
        <ele>115.98</ele>
        <time>2022-06-01T14:45:56Z</time>
      </trkpt>
      <trkpt lat="50.09789" lon="2.25748">
        <ele>115.01</ele>
        <time>2022-06-01T14:46:09Z</time>
      </trkpt>
      <trkpt lat="50.09801" lon="2.25762">
        <ele>115.5</ele>
        <time>2022-06-01T14:46:22Z</time>
      </trkpt>
      <trkpt lat="50.09813" lon="2.25774">
        <ele>116.94</ele>
        <time>2022-06-01T14:46:34Z</time>
      </trkpt>
      <trkpt lat="50.09826" lon="2.25791">
        <ele>118.38</ele>
        <time>2022-06-01T14:46:48Z</time>
      </trkpt>
      <trkpt lat="50.09838" lon="2.25806">
        <ele>118.86</ele>
        <time>2022-06-01T14:47:01Z</time>
      </trkpt>
      <trkpt lat="50.09851" lon="2.2582">
        <ele>120.3</ele>
        <time>2022-06-01T14:47:14Z</time>
      </trkpt>
      <trkpt lat="50.09864" lon="2.25836">
        <ele>120.78</ele>
        <time>2022-06-01T14:47:27Z</time>
      </trkpt>
      <trkpt lat="50.09879" lon="2.25852">
        <ele>121.74</ele>
        <time>2022-06-01T14:47:41Z</time>
      </trkpt>
      <trkpt lat="50.09891" lon="2.25866">
        <ele>122.22</ele>
        <time>2022-06-01T14:47:53Z</time>
      </trkpt>
      <trkpt lat="50.09905" lon="2.25877">
        <ele>123.67</ele>
        <time>2022-06-01T14:48:06Z</time>
      </trkpt>
      <trkpt lat="50.0992" lon="2.25886">
        <ele>124.15</ele>
        <time>2022-06-01T14:48:20Z</time>
      </trkpt>
      <trkpt lat="50.09928" lon="2.2589">
        <ele>124.15</ele>
        <time>2022-06-01T14:48:28Z</time>
      </trkpt>
      <trkpt lat="50.09932" lon="2.25894">
        <ele>124.63</ele>
        <time>2022-06-01T14:48:32Z</time>
      </trkpt>
      <trkpt lat="50.09942" lon="2.25911">
        <ele>124.63</ele>
        <time>2022-06-01T14:48:46Z</time>
      </trkpt>
      <trkpt lat="50.09955" lon="2.25927">
        <ele>125.11</ele>
        <time>2022-06-01T14:48:59Z</time>
      </trkpt>
      <trkpt lat="50.09966" lon="2.25941">
        <ele>126.07</ele>
        <time>2022-06-01T14:49:12Z</time>
      </trkpt>
      <trkpt lat="50.0998" lon="2.25963">
        <ele>127.51</ele>
        <time>2022-06-01T14:49:27Z</time>
      </trkpt>
      <trkpt lat="50.09982" lon="2.25967">
        <ele>127.51</ele>
        <time>2022-06-01T14:49:30Z</time>
      </trkpt>
      <trkpt lat="50.09983" lon="2.25971">
        <ele>127.03</ele>
        <time>2022-06-01T14:49:32Z</time>
      </trkpt>
      <trkpt lat="50.09994" lon="2.25993">
        <ele>127.99</ele>
        <time>2022-06-01T14:49:47Z</time>
      </trkpt>
      <trkpt lat="50.10005" lon="2.26012">
        <ele>129.43</ele>
        <time>2022-06-01T14:50:00Z</time>
      </trkpt>
      <trkpt lat="50.10012" lon="2.26022">
        <ele>129.43</ele>
        <time>2022-06-01T14:50:08Z</time>
      </trkpt>
      <trkpt lat="50.10033" lon="2.26028">
        <ele>128.47</ele>
        <time>2022-06-01T14:50:25Z</time>
      </trkpt>
      <trkpt lat="50.10052" lon="2.2603">
        <ele>128.95</ele>
        <time>2022-06-01T14:50:40Z</time>
      </trkpt>
      <trkpt lat="50.10069" lon="2.26032">
        <ele>130.4</ele>
        <time>2022-06-01T14:50:53Z</time>
      </trkpt>
      <trkpt lat="50.10089" lon="2.26033">
        <ele>131.84</ele>
        <time>2022-06-01T14:51:09Z</time>
      </trkpt>
      <trkpt lat="50.10105" lon="2.26034">
        <ele>132.32</ele>
        <time>2022-06-01T14:51:22Z</time>
      </trkpt>
      <trkpt lat="50.10121" lon="2.26036">
        <ele>133.28</ele>
        <time>2022-06-01T14:51:35Z</time>
      </trkpt>
      <trkpt lat="50.10136" lon="2.26037">
        <ele>134.24</ele>
        <time>2022-06-01T14:51:48Z</time>
      </trkpt>
      <trkpt lat="50.10147" lon="2.26039">
        <ele>135.2</ele>
        <time>2022-06-01T14:51:56Z</time>
      </trkpt>
      <trkpt lat="50.10162" lon="2.26041">
        <ele>136.16</ele>
        <time>2022-06-01T14:52:09Z</time>
      </trkpt>
      <trkpt lat="50.10181" lon="2.26049">
        <ele>137.61</ele>
        <time>2022-06-01T14:52:25Z</time>
      </trkpt>
      <trkpt lat="50.10195" lon="2.26058">
        <ele>137.13</ele>
        <time>2022-06-01T14:52:38Z</time>
      </trkpt>
      <trkpt lat="50.10215" lon="2.2607">
        <ele>138.09</ele>
        <time>2022-06-01T14:52:55Z</time>
      </trkpt>
      <trkpt lat="50.1023" lon="2.26078">
        <ele>139.53</ele>
        <time>2022-06-01T14:53:08Z</time>
      </trkpt>
      <trkpt lat="50.10245" lon="2.26079">
        <ele>140.49</ele>
        <time>2022-06-01T14:53:21Z</time>
      </trkpt>
      <trkpt lat="50.10261" lon="2.26078">
        <ele>141.93</ele>
        <time>2022-06-01T14:53:36Z</time>
      </trkpt>
      <trkpt lat="50.1028" lon="2.26081">
        <ele>143.37</ele>
        <time>2022-06-01T14:53:51Z</time>
      </trkpt>
      <trkpt lat="50.103" lon="2.26081">
        <ele>145.3</ele>
        <time>2022-06-01T14:54:06Z</time>
      </trkpt>
      <trkpt lat="50.10321" lon="2.26081">
        <ele>146.26</ele>
        <time>2022-06-01T14:54:22Z</time>
      </trkpt>
      <trkpt lat="50.10328" lon="2.26083">
        <ele>147.7</ele>
        <time>2022-06-01T14:54:34Z</time>
      </trkpt>
      <trkpt lat="50.10329" lon="2.26084">
        <ele>148.66</ele>
        <time>2022-06-01T14:54:48Z</time>
      </trkpt>
      <trkpt lat="50.10331" lon="2.26085">
        <ele>149.14</ele>
        <time>2022-06-01T14:55:00Z</time>
      </trkpt>
      <trkpt lat="50.10333" lon="2.26085">
        <ele>149.62</ele>
        <time>2022-06-01T14:55:17Z</time>
      </trkpt>
      <trkpt lat="50.10333" lon="2.26085">
        <ele>149.62</ele>
        <time>2022-06-01T14:55:32Z</time>
      </trkpt>
      <trkpt lat="50.10333" lon="2.26085">
        <ele>149.62</ele>
        <time>2022-06-01T14:55:51Z</time>
      </trkpt>
      <trkpt lat="50.10332" lon="2.26086">
        <ele>149.62</ele>
        <time>2022-06-01T14:56:11Z</time>
      </trkpt>
      <trkpt lat="50.10333" lon="2.26085">
        <ele>149.14</ele>
        <time>2022-06-01T14:56:25Z</time>
      </trkpt>
      <trkpt lat="50.10334" lon="2.26086">
        <ele>148.66</ele>
        <time>2022-06-01T14:56:37Z</time>
      </trkpt>
      <trkpt lat="50.10336" lon="2.26085">
        <ele>147.7</ele>
        <time>2022-06-01T14:56:52Z</time>
      </trkpt>
      <trkpt lat="50.10339" lon="2.26084">
        <ele>146.74</ele>
        <time>2022-06-01T14:57:05Z</time>
      </trkpt>
      <trkpt lat="50.10341" lon="2.26083">
        <ele>145.78</ele>
        <time>2022-06-01T14:57:20Z</time>
      </trkpt>
      <trkpt lat="50.10345" lon="2.26085">
        <ele>145.78</ele>
        <time>2022-06-01T14:57:31Z</time>
      </trkpt>
      <trkpt lat="50.10357" lon="2.26095">
        <ele>144.34</ele>
        <time>2022-06-01T14:57:44Z</time>
      </trkpt>
      <trkpt lat="50.10365" lon="2.26113">
        <ele>143.37</ele>
        <time>2022-06-01T14:57:59Z</time>
      </trkpt>
      <trkpt lat="50.10367" lon="2.26115">
        <ele>143.37</ele>
        <time>2022-06-01T14:58:01Z</time>
      </trkpt>
      <trkpt lat="50.10374" lon="2.26133">
        <ele>145.3</ele>
        <time>2022-06-01T14:58:15Z</time>
      </trkpt>
      <trkpt lat="50.10382" lon="2.2615">
        <ele>146.74</ele>
        <time>2022-06-01T14:58:28Z</time>
      </trkpt>
      <trkpt lat="50.10391" lon="2.2617">
        <ele>148.18</ele>
        <time>2022-06-01T14:58:42Z</time>
      </trkpt>
      <trkpt lat="50.10403" lon="2.26175">
        <ele>146.26</ele>
        <time>2022-06-01T14:58:57Z</time>
      </trkpt>
      <trkpt lat="50.10404" lon="2.26174">
        <ele>146.26</ele>
        <time>2022-06-01T14:58:59Z</time>
      </trkpt>
      <trkpt lat="50.10409" lon="2.26168">
        <ele>145.78</ele>
        <time>2022-06-01T14:59:05Z</time>
      </trkpt>
      <trkpt lat="50.1042" lon="2.26148">
        <ele>144.34</ele>
        <time>2022-06-01T14:59:20Z</time>
      </trkpt>
      <trkpt lat="50.10427" lon="2.26137">
        <ele>145.78</ele>
        <time>2022-06-01T14:59:31Z</time>
      </trkpt>
      <trkpt lat="50.10429" lon="2.26135">
        <ele>145.78</ele>
        <time>2022-06-01T14:59:33Z</time>
      </trkpt>
      <trkpt lat="50.10438" lon="2.26115">
        <ele>146.26</ele>
        <time>2022-06-01T14:59:47Z</time>
      </trkpt>
      <trkpt lat="50.10443" lon="2.26109">
        <ele>146.26</ele>
        <time>2022-06-01T14:59:52Z</time>
      </trkpt>
      <trkpt lat="50.10457" lon="2.26091">
        <ele>144.82</ele>
        <time>2022-06-01T15:00:07Z</time>
      </trkpt>
      <trkpt lat="50.10471" lon="2.26076">
        <ele>143.85</ele>
        <time>2022-06-01T15:00:21Z</time>
      </trkpt>
      <trkpt lat="50.10484" lon="2.26059">
        <ele>147.22</ele>
        <time>2022-06-01T15:00:34Z</time>
      </trkpt>
      <trkpt lat="50.10498" lon="2.2604">
        <ele>146.74</ele>
        <time>2022-06-01T15:00:49Z</time>
      </trkpt>
      <trkpt lat="50.10509" lon="2.26023">
        <ele>145.3</ele>
        <time>2022-06-01T15:01:03Z</time>
      </trkpt>
      <trkpt lat="50.10523" lon="2.26006">
        <ele>144.82</ele>
        <time>2022-06-01T15:01:18Z</time>
      </trkpt>
      <trkpt lat="50.10537" lon="2.25997">
        <ele>145.78</ele>
        <time>2022-06-01T15:01:31Z</time>
      </trkpt>
      <trkpt lat="50.10551" lon="2.25987">
        <ele>146.74</ele>
        <time>2022-06-01T15:01:43Z</time>
      </trkpt>
      <trkpt lat="50.10554" lon="2.25985">
        <ele>146.74</ele>
        <time>2022-06-01T15:01:46Z</time>
      </trkpt>
      <trkpt lat="50.10565" lon="2.25971">
        <ele>149.14</ele>
        <time>2022-06-01T15:01:59Z</time>
      </trkpt>
      <trkpt lat="50.1058" lon="2.25958">
        <ele>148.18</ele>
        <time>2022-06-01T15:02:14Z</time>
      </trkpt>
      <trkpt lat="50.10592" lon="2.25946">
        <ele>149.14</ele>
        <time>2022-06-01T15:02:26Z</time>
      </trkpt>
      <trkpt lat="50.10603" lon="2.2593">
        <ele>152.03</ele>
        <time>2022-06-01T15:02:39Z</time>
      </trkpt>
      <trkpt lat="50.10609" lon="2.25904">
        <ele>151.54</ele>
        <time>2022-06-01T15:02:54Z</time>
      </trkpt>
      <trkpt lat="50.10616" lon="2.25875">
        <ele>151.06</ele>
        <time>2022-06-01T15:03:10Z</time>
      </trkpt>
      <trkpt lat="50.10622" lon="2.25851">
        <ele>150.58</ele>
        <time>2022-06-01T15:03:23Z</time>
      </trkpt>
      <trkpt lat="50.10637" lon="2.25848">
        <ele>151.06</ele>
        <time>2022-06-01T15:03:36Z</time>
      </trkpt>
      <trkpt lat="50.1065" lon="2.25861">
        <ele>149.62</ele>
        <time>2022-06-01T15:03:49Z</time>
      </trkpt>
      <trkpt lat="50.10658" lon="2.25872">
        <ele>148.18</ele>
        <time>2022-06-01T15:03:58Z</time>
      </trkpt>
      <trkpt lat="50.1067" lon="2.25884">
        <ele>147.7</ele>
        <time>2022-06-01T15:04:09Z</time>
      </trkpt>
      <trkpt lat="50.10681" lon="2.25897">
        <ele>150.58</ele>
        <time>2022-06-01T15:04:21Z</time>
      </trkpt>
      <trkpt lat="50.10686" lon="2.25901">
        <ele>150.58</ele>
        <time>2022-06-01T15:04:26Z</time>
      </trkpt>
      <trkpt lat="50.1069" lon="2.25902">
        <ele>150.1</ele>
        <time>2022-06-01T15:04:30Z</time>
      </trkpt>
      <trkpt lat="50.10694" lon="2.25899">
        <ele>150.1</ele>
        <time>2022-06-01T15:04:34Z</time>
      </trkpt>
      <trkpt lat="50.107" lon="2.25894">
        <ele>149.14</ele>
        <time>2022-06-01T15:04:40Z</time>
      </trkpt>
      <trkpt lat="50.10716" lon="2.25876">
        <ele>146.26</ele>
        <time>2022-06-01T15:04:56Z</time>
      </trkpt>
      <trkpt lat="50.10728" lon="2.25862">
        <ele>146.26</ele>
        <time>2022-06-01T15:05:10Z</time>
      </trkpt>
      <trkpt lat="50.10735" lon="2.25845">
        <ele>144.34</ele>
        <time>2022-06-01T15:05:23Z</time>
      </trkpt>
      <trkpt lat="50.10738" lon="2.25827">
        <ele>143.37</ele>
        <time>2022-06-01T15:05:34Z</time>
      </trkpt>
      <trkpt lat="50.10744" lon="2.25814">
        <ele>144.34</ele>
        <time>2022-06-01T15:05:47Z</time>
      </trkpt>
      <trkpt lat="50.10746" lon="2.25806">
        <ele>144.34</ele>
        <time>2022-06-01T15:05:58Z</time>
      </trkpt>
      <trkpt lat="50.10744" lon="2.25802">
        <ele>145.78</ele>
        <time>2022-06-01T15:06:09Z</time>
      </trkpt>
      <trkpt lat="50.10743" lon="2.258">
        <ele>147.22</ele>
        <time>2022-06-01T15:06:11Z</time>
      </trkpt>
    </trkseg>
  </trk>
</gpx>